BAW247 EGLL-SBGR
Flight info
| Callsign | BAW247 |
|---|---|
| Flight time | N/A |
| Altitude | 27000 |
| Route | GOGSI N621 SAM M195 IBNID/N0491F290 M195 LORKU DCT BALDA DCT ABUPI DCT BEXAL/N0496F310 DCT SAMAR DCT YUSME DCT LIMAL/N0503F320 N873 IPERA UN873 ORARO/N0500F340 UN873 NTL DCT OPTUR DCT ASGIK UZ21 VUNOX |
| Aircraft | B77W/H-SDE1E2E3FGHIJ2J3J4J5M1RWXY/LB1D1 |
Departure
| Time | 2026-05-08 00:21 |
|---|---|
| Airport | London Heathrow Airport (EGLL) |
Arrival
| Time | N/A |
|---|---|
| Airport | São Paulo/Guarulhos–Governor André Franco Montoro International Airport (SBGR) |
| Time | Latitude | Longitude | Altitude | Speed | Heading |
|---|---|---|---|---|---|
| 2026-05-07 23:42 | 51.47051 | -0.48011 | 89 ft | 0 kts | 269° |
| 2026-05-08 00:07 | 51.47052 | -0.47980 | 90 ft | 4 kts | 269° |
| 2026-05-08 00:08 | 51.47053 | -0.47938 | 92 ft | 2 kts | 268° |
| 2026-05-08 00:08 | 51.47055 | -0.47902 | 91 ft | 4 kts | 248° |
| 2026-05-08 00:08 | 51.47065 | -0.47876 | 93 ft | 4 kts | 207° |
| 2026-05-08 00:08 | 51.47085 | -0.47869 | 89 ft | 4 kts | 177° |
| 2026-05-08 00:09 | 51.47111 | -0.47872 | 88 ft | 2 kts | 179° |
| 2026-05-08 00:09 | 51.47117 | -0.47872 | 89 ft | 0 kts | 179° |
| 2026-05-08 00:13 | 51.47114 | -0.47872 | 89 ft | 2 kts | 179° |
| 2026-05-08 00:13 | 51.47077 | -0.47871 | 93 ft | 8 kts | 179° |
| 2026-05-08 00:14 | 51.46999 | -0.47869 | 89 ft | 12 kts | 179° |
| 2026-05-08 00:14 | 51.46914 | -0.47871 | 89 ft | 12 kts | 180° |
| 2026-05-08 00:14 | 51.46830 | -0.47868 | 89 ft | 12 kts | 178° |
| 2026-05-08 00:14 | 51.46771 | -0.47870 | 91 ft | 7 kts | 195° |
| 2026-05-08 00:15 | 51.46745 | -0.47934 | 94 ft | 7 kts | 261° |
| 2026-05-08 00:15 | 51.46743 | -0.48014 | 89 ft | 7 kts | 269° |
| 2026-05-08 00:15 | 51.46743 | -0.48094 | 92 ft | 7 kts | 270° |
| 2026-05-08 00:15 | 51.46743 | -0.48174 | 89 ft | 7 kts | 270° |
| 2026-05-08 00:16 | 51.46743 | -0.48254 | 89 ft | 7 kts | 270° |
| 2026-05-08 00:16 | 51.46743 | -0.48334 | 90 ft | 7 kts | 269° |
| 2026-05-08 00:16 | 51.46743 | -0.48415 | 89 ft | 7 kts | 269° |
| 2026-05-08 00:16 | 51.46741 | -0.48494 | 89 ft | 7 kts | 267° |
| 2026-05-08 00:17 | 51.46738 | -0.48575 | 89 ft | 7 kts | 267° |
| 2026-05-08 00:17 | 51.46736 | -0.48655 | 89 ft | 7 kts | 267° |
| 2026-05-08 00:17 | 51.46719 | -0.48727 | 92 ft | 7 kts | 231° |
| 2026-05-08 00:17 | 51.46675 | -0.48757 | 93 ft | 7 kts | 184° |
| 2026-05-08 00:18 | 51.46626 | -0.48766 | 94 ft | 7 kts | 191° |
| 2026-05-08 00:18 | 51.46575 | -0.48781 | 92 ft | 8 kts | 189° |
| 2026-05-08 00:18 | 51.46528 | -0.48783 | 93 ft | 5 kts | 171° |
| 2026-05-08 00:18 | 51.46505 | -0.48766 | 95 ft | 2 kts | 147° |
| 2026-05-08 00:19 | 51.46486 | -0.48731 | 94 ft | 6 kts | 123° |
| 2026-05-08 00:19 | 51.46479 | -0.48685 | 95 ft | 3 kts | 93° |
| 2026-05-08 00:19 | 51.46479 | -0.48664 | 93 ft | 0 kts | 88° |
| 2026-05-08 00:20 | 51.46480 | -0.48588 | 90 ft | 18 kts | 88° |
| 2026-05-08 00:20 | 51.46480 | -0.48004 | 88 ft | 92 kts | 90° |
| 2026-05-08 00:20 | 51.46487 | -0.46557 | 95 ft | 166 kts | 89° |
| 2026-05-08 00:20 | 51.46500 | -0.44396 | 322 ft | 205 kts | 89° |
| 2026-05-08 00:21 | 51.46523 | -0.42159 | 1439 ft | 197 kts | 90° |
| 2026-05-08 00:21 | 51.46434 | -0.39932 | 2107 ft | 206 kts | 111° |
| 2026-05-08 00:21 | 51.45517 | -0.38186 | 2194 ft | 213 kts | 150° |
| 2026-05-08 00:21 | 51.44295 | -0.36809 | 2374 ft | 220 kts | 128° |
| 2026-05-08 00:22 | 51.43424 | -0.34768 | 2637 ft | 226 kts | 130° |
| 2026-05-08 00:22 | 51.42169 | -0.33199 | 3001 ft | 235 kts | 156° |
| 2026-05-08 00:22 | 51.40547 | -0.32641 | 3457 ft | 244 kts | 179° |
| 2026-05-08 00:22 | 51.38901 | -0.33187 | 3942 ft | 250 kts | 203° |
| 2026-05-08 00:23 | 51.37417 | -0.34775 | 4438 ft | 258 kts | 220° |
| 2026-05-08 00:23 | 51.36063 | -0.36723 | 4713 ft | 270 kts | 220° |
| 2026-05-08 00:23 | 51.34643 | -0.38759 | 5121 ft | 277 kts | 220° |
| 2026-05-08 00:23 | 51.33192 | -0.40820 | 5565 ft | 282 kts | 221° |
| 2026-05-08 00:24 | 51.31753 | -0.42952 | 6004 ft | 282 kts | 227° |
| 2026-05-08 00:24 | 51.30591 | -0.45524 | 5988 ft | 287 kts | 242° |
| 2026-05-08 00:24 | 51.29795 | -0.48453 | 5995 ft | 288 kts | 251° |
| 2026-05-08 00:24 | 51.29219 | -0.51502 | 6003 ft | 286 kts | 254° |
| 2026-05-08 00:25 | 51.28686 | -0.54570 | 5993 ft | 285 kts | 254° |
| 2026-05-08 00:25 | 51.28335 | -0.56583 | 6000 ft | 285 kts | 254° |
| 2026-05-08 00:25 | 51.27784 | -0.59621 | 5997 ft | 284 kts | 252° |
| 2026-05-08 00:25 | 51.27012 | -0.63617 | 6002 ft | 283 kts | 252° |
| 2026-05-08 00:26 | 51.26424 | -0.66627 | 6000 ft | 284 kts | 252° |
| 2026-05-08 00:26 | 51.26036 | -0.68612 | 6004 ft | 284 kts | 252° |
| 2026-05-08 00:26 | 51.25441 | -0.71659 | 5997 ft | 284 kts | 252° |
| 2026-05-08 00:26 | 51.24861 | -0.74623 | 5998 ft | 284 kts | 252° |
| 2026-05-08 00:27 | 51.24271 | -0.77638 | 5993 ft | 285 kts | 252° |
| 2026-05-08 00:27 | 51.23682 | -0.80651 | 5991 ft | 285 kts | 252° |
| 2026-05-08 00:27 | 51.23094 | -0.83667 | 5997 ft | 285 kts | 252° |
| 2026-05-08 00:27 | 51.22500 | -0.86686 | 5972 ft | 285 kts | 252° |
| 2026-05-08 00:28 | 51.21905 | -0.89700 | 5974 ft | 286 kts | 251° |
| 2026-05-08 00:28 | 51.21307 | -0.92732 | 5968 ft | 286 kts | 252° |
| 2026-05-08 00:28 | 51.20693 | -0.95743 | 5959 ft | 283 kts | 246° |
| 2026-05-08 00:28 | 51.19697 | -0.98276 | 6063 ft | 282 kts | 229° |
| 2026-05-08 00:29 | 51.18443 | -1.00710 | 6564 ft | 285 kts | 230° |
| 2026-05-08 00:29 | 51.17307 | -1.02986 | 7178 ft | 282 kts | 231° |
| 2026-05-08 00:29 | 51.16092 | -1.05448 | 7742 ft | 283 kts | 232° |
| 2026-05-08 00:29 | 51.14880 | -1.07921 | 8323 ft | 283 kts | 232° |
| 2026-05-08 00:30 | 51.13673 | -1.10389 | 8915 ft | 283 kts | 232° |
| 2026-05-08 00:30 | 51.12493 | -1.12809 | 9469 ft | 283 kts | 232° |
| 2026-05-08 00:30 | 51.11287 | -1.15280 | 10036 ft | 283 kts | 232° |
| 2026-05-08 00:30 | 51.10064 | -1.17783 | 10359 ft | 293 kts | 232° |
| 2026-05-08 00:31 | 51.08742 | -1.20306 | 10463 ft | 308 kts | 226° |
| 2026-05-08 00:31 | 51.07121 | -1.22674 | 10598 ft | 324 kts | 220° |
| 2026-05-08 00:31 | 51.05258 | -1.24824 | 10728 ft | 340 kts | 213° |
| 2026-05-08 00:31 | 51.03208 | -1.26840 | 11025 ft | 351 kts | 212° |
| 2026-05-08 00:32 | 51.01099 | -1.28879 | 11451 ft | 357 kts | 212° |
| 2026-05-08 00:32 | 50.98971 | -1.30989 | 11950 ft | 362 kts | 213° |
| 2026-05-08 00:32 | 50.96838 | -1.33138 | 12517 ft | 365 kts | 213° |
| 2026-05-08 00:32 | 50.94695 | -1.35315 | 13072 ft | 367 kts | 213° |
| 2026-05-08 00:33 | 50.92542 | -1.37549 | 13641 ft | 370 kts | 214° |
| 2026-05-08 00:33 | 50.90383 | -1.39810 | 14137 ft | 374 kts | 214° |
| 2026-05-08 00:33 | 50.88206 | -1.42091 | 14642 ft | 376 kts | 214° |
| 2026-05-08 00:33 | 50.86009 | -1.44389 | 15139 ft | 379 kts | 214° |
| 2026-05-08 00:34 | 50.83796 | -1.46699 | 15631 ft | 382 kts | 213° |
| 2026-05-08 00:34 | 50.81569 | -1.49017 | 16143 ft | 385 kts | 213° |
| 2026-05-08 00:34 | 50.79353 | -1.51321 | 16649 ft | 387 kts | 213° |
| 2026-05-08 00:34 | 50.77092 | -1.53667 | 17142 ft | 391 kts | 213° |
| 2026-05-08 00:35 | 50.74807 | -1.56035 | 17628 ft | 394 kts | 213° |
| 2026-05-08 00:35 | 50.72507 | -1.58414 | 18138 ft | 397 kts | 213° |
| 2026-05-08 00:35 | 50.70189 | -1.60811 | 18580 ft | 400 kts | 213° |
| 2026-05-08 00:35 | 50.67850 | -1.63226 | 19027 ft | 403 kts | 213° |
| 2026-05-08 00:36 | 50.65502 | -1.65648 | 19475 ft | 405 kts | 213° |
| 2026-05-08 00:36 | 50.63133 | -1.68088 | 19950 ft | 407 kts | 213° |
| 2026-05-08 00:36 | 50.60801 | -1.70488 | 20362 ft | 409 kts | 213° |
| 2026-05-08 00:36 | 50.58365 | -1.72992 | 20799 ft | 412 kts | 213° |
| 2026-05-08 00:37 | 50.55959 | -1.75463 | 21224 ft | 414 kts | 213° |
| 2026-05-08 00:37 | 50.53536 | -1.77946 | 21661 ft | 416 kts | 213° |
| 2026-05-08 00:37 | 50.51097 | -1.80437 | 22079 ft | 419 kts | 213° |
| 2026-05-08 00:38 | 50.46169 | -1.85437 | 22912 ft | 424 kts | 213° |
| 2026-05-08 00:38 | 50.43683 | -1.87954 | 23315 ft | 426 kts | 213° |
| 2026-05-08 00:38 | 50.41188 | -1.90479 | 23699 ft | 428 kts | 213° |
| 2026-05-08 00:38 | 50.38704 | -1.92991 | 24041 ft | 430 kts | 213° |
| 2026-05-08 00:39 | 50.36182 | -1.95537 | 24402 ft | 432 kts | 213° |
| 2026-05-08 00:39 | 50.33649 | -1.98093 | 24753 ft | 433 kts | 213° |
| 2026-05-08 00:39 | 50.31113 | -2.00650 | 25093 ft | 435 kts | 213° |
| 2026-05-08 00:39 | 50.28563 | -2.03217 | 25439 ft | 436 kts | 213° |
| 2026-05-08 00:40 | 50.26007 | -2.05786 | 25766 ft | 438 kts | 212° |
| 2026-05-08 00:40 | 50.23429 | -2.08364 | 26083 ft | 440 kts | 212° |
| 2026-05-08 00:40 | 50.20837 | -2.10909 | 26401 ft | 441 kts | 212° |
| 2026-05-08 00:40 | 50.18225 | -2.13447 | 26682 ft | 443 kts | 212° |
| 2026-05-08 00:41 | 50.15597 | -2.15994 | 26964 ft | 445 kts | 212° |
| 2026-05-08 00:41 | 50.12995 | -2.18517 | 27258 ft | 446 kts | 212° |
| 2026-05-08 00:41 | 50.10357 | -2.21076 | 27560 ft | 447 kts | 212° |
| 2026-05-08 00:41 | 50.07708 | -2.23646 | 27838 ft | 449 kts | 212° |
| 2026-05-08 00:42 | 50.05042 | -2.26233 | 27973 ft | 453 kts | 212° |
| 2026-05-08 00:42 | 49.99642 | -2.31461 | 28035 ft | 460 kts | 212° |
| 2026-05-08 00:43 | 49.94140 | -2.36700 | 28039 ft | 467 kts | 209° |
| 2026-05-08 00:43 | 49.88223 | -2.40908 | 28034 ft | 468 kts | 203° |
| 2026-05-08 00:44 | 49.82227 | -2.44817 | 28029 ft | 468 kts | 203° |
| 2026-05-08 00:44 | 49.76243 | -2.48755 | 28022 ft | 467 kts | 203° |
| 2026-05-08 00:45 | 49.70303 | -2.52678 | 28024 ft | 466 kts | 203° |
| 2026-05-08 00:45 | 49.64345 | -2.56609 | 28022 ft | 465 kts | 203° |
| 2026-05-08 00:46 | 49.58394 | -2.60524 | 28023 ft | 464 kts | 203° |
| 2026-05-08 00:46 | 49.52439 | -2.64430 | 28023 ft | 464 kts | 203° |
| 2026-05-08 00:47 | 49.46498 | -2.68316 | 28023 ft | 464 kts | 203° |
| 2026-05-08 00:47 | 49.40593 | -2.72168 | 28023 ft | 464 kts | 203° |
| 2026-05-08 00:48 | 49.34653 | -2.76033 | 28024 ft | 464 kts | 203° |
| 2026-05-08 00:48 | 49.28712 | -2.79888 | 28021 ft | 464 kts | 203° |
| 2026-05-08 00:49 | 49.22763 | -2.83739 | 28021 ft | 464 kts | 203° |
| 2026-05-08 00:49 | 49.16815 | -2.87578 | 28015 ft | 464 kts | 203° |
| 2026-05-08 00:50 | 49.10858 | -2.91414 | 28020 ft | 464 kts | 203° |
| 2026-05-08 00:50 | 49.04906 | -2.95236 | 28018 ft | 464 kts | 203° |
| 2026-05-08 00:51 | 48.98982 | -2.99030 | 28020 ft | 464 kts | 204° |
| 2026-05-08 00:51 | 48.93014 | -3.02843 | 28019 ft | 465 kts | 204° |
| 2026-05-08 00:52 | 48.87036 | -3.06652 | 28019 ft | 466 kts | 204° |
| 2026-05-08 00:52 | 48.81047 | -3.10459 | 28014 ft | 467 kts | 204° |
| 2026-05-08 00:53 | 48.75056 | -3.14256 | 28020 ft | 468 kts | 204° |
| 2026-05-08 00:53 | 48.69037 | -3.18062 | 28019 ft | 468 kts | 204° |
| 2026-05-08 00:54 | 48.63015 | -3.21859 | 28019 ft | 469 kts | 204° |
| 2026-05-08 00:54 | 48.57013 | -3.25634 | 28020 ft | 470 kts | 205° |
| 2026-05-08 00:55 | 48.50960 | -3.29432 | 28017 ft | 471 kts | 205° |
| 2026-05-08 00:55 | 48.44897 | -3.33225 | 28014 ft | 472 kts | 205° |
| 2026-05-08 00:56 | 48.38822 | -3.37017 | 28012 ft | 473 kts | 205° |
| 2026-05-08 00:56 | 48.32736 | -3.40805 | 28013 ft | 474 kts | 205° |
| 2026-05-08 00:57 | 48.26632 | -3.44596 | 28015 ft | 475 kts | 205° |
| 2026-05-08 00:57 | 48.20518 | -3.48382 | 28007 ft | 476 kts | 206° |
| 2026-05-08 00:58 | 48.14416 | -3.52151 | 28015 ft | 477 kts | 206° |
| 2026-05-08 00:58 | 48.11342 | -3.54047 | 27997 ft | 477 kts | 206° |
| 2026-05-08 00:58 | 48.08270 | -3.55938 | 27998 ft | 477 kts | 206° |
| 2026-05-08 00:59 | 48.02123 | -3.59714 | 27995 ft | 478 kts | 206° |
| 2026-05-08 00:59 | 47.99039 | -3.61605 | 27990 ft | 478 kts | 206° |
| 2026-05-08 00:59 | 47.95963 | -3.63489 | 27996 ft | 479 kts | 206° |
| 2026-05-08 00:59 | 47.92874 | -3.65379 | 27991 ft | 479 kts | 206° |
| 2026-05-08 01:00 | 47.89822 | -3.67244 | 27986 ft | 480 kts | 206° |
| 2026-05-08 01:00 | 47.86737 | -3.69127 | 27995 ft | 480 kts | 206° |
| 2026-05-08 01:00 | 47.83632 | -3.71019 | 27988 ft | 480 kts | 206° |
| 2026-05-08 01:00 | 47.80537 | -3.72901 | 27997 ft | 481 kts | 206° |
| 2026-05-08 01:01 | 47.77442 | -3.74782 | 27989 ft | 481 kts | 206° |
| 2026-05-08 01:01 | 47.74341 | -3.76664 | 27987 ft | 482 kts | 206° |
| 2026-05-08 01:01 | 47.71237 | -3.78546 | 27985 ft | 482 kts | 206° |
| 2026-05-08 01:02 | 47.65021 | -3.82307 | 27973 ft | 483 kts | 206° |
| 2026-05-08 01:02 | 47.61905 | -3.84189 | 28000 ft | 483 kts | 206° |
| 2026-05-08 01:02 | 47.58785 | -3.86070 | 27998 ft | 484 kts | 206° |
| 2026-05-08 01:02 | 47.55668 | -3.87947 | 27986 ft | 484 kts | 206° |
| 2026-05-08 01:03 | 47.52544 | -3.89827 | 27988 ft | 484 kts | 206° |
| 2026-05-08 01:03 | 47.49422 | -3.91702 | 27988 ft | 485 kts | 206° |
| 2026-05-08 01:03 | 47.46297 | -3.93577 | 27990 ft | 485 kts | 206° |
| 2026-05-08 01:04 | 47.40015 | -3.97339 | 28202 ft | 488 kts | 206° |
| 2026-05-08 01:04 | 47.36866 | -3.99221 | 28510 ft | 487 kts | 206° |
| 2026-05-08 01:04 | 47.33727 | -4.01093 | 28852 ft | 487 kts | 206° |
| 2026-05-08 01:04 | 47.30630 | -4.02939 | 29142 ft | 486 kts | 207° |
| 2026-05-08 01:05 | 47.27491 | -4.04807 | 29418 ft | 487 kts | 207° |
| 2026-05-08 01:05 | 47.24349 | -4.06675 | 29666 ft | 487 kts | 207° |
| 2026-05-08 01:05 | 47.21198 | -4.08547 | 29892 ft | 488 kts | 207° |
| 2026-05-08 01:06 | 47.14879 | -4.12294 | 29986 ft | 490 kts | 207° |
| 2026-05-08 01:06 | 47.08554 | -4.16032 | 29994 ft | 489 kts | 207° |
| 2026-05-08 01:07 | 47.02239 | -4.19754 | 29985 ft | 488 kts | 206° |
| 2026-05-08 01:07 | 46.95992 | -4.23428 | 29989 ft | 487 kts | 206° |
| 2026-05-08 01:08 | 46.89697 | -4.27121 | 29989 ft | 487 kts | 206° |
| 2026-05-08 01:08 | 46.83390 | -4.30813 | 29977 ft | 488 kts | 206° |
| 2026-05-08 01:09 | 46.77075 | -4.34499 | 29972 ft | 489 kts | 206° |
| 2026-05-08 01:09 | 46.70746 | -4.38184 | 29980 ft | 490 kts | 206° |
| 2026-05-08 01:10 | 46.64410 | -4.41863 | 29979 ft | 490 kts | 206° |
| 2026-05-08 01:10 | 46.58060 | -4.45542 | 29975 ft | 491 kts | 206° |
| 2026-05-08 01:11 | 46.51757 | -4.49183 | 29969 ft | 491 kts | 206° |
| 2026-05-08 01:11 | 46.45420 | -4.52836 | 29970 ft | 490 kts | 206° |
| 2026-05-08 01:12 | 46.39068 | -4.56487 | 29967 ft | 490 kts | 206° |
| 2026-05-08 01:12 | 46.33756 | -4.59534 | 29964 ft | 490 kts | 206° |
| 2026-05-08 01:13 | 46.27426 | -4.63156 | 29961 ft | 489 kts | 206° |
| 2026-05-08 01:13 | 46.21098 | -4.66768 | 29958 ft | 489 kts | 205° |
| 2026-05-08 01:14 | 46.14820 | -4.70343 | 29958 ft | 488 kts | 205° |
| 2026-05-08 01:14 | 46.08498 | -4.73935 | 29956 ft | 488 kts | 205° |
| 2026-05-08 01:15 | 46.02177 | -4.77517 | 29958 ft | 488 kts | 205° |
| 2026-05-08 01:15 | 45.95855 | -4.81090 | 29951 ft | 488 kts | 205° |
| 2026-05-08 01:16 | 45.89544 | -4.84649 | 29955 ft | 488 kts | 205° |
| 2026-05-08 01:16 | 45.83223 | -4.88204 | 29942 ft | 487 kts | 205° |
| 2026-05-08 01:17 | 45.76910 | -4.91747 | 29947 ft | 487 kts | 205° |
| 2026-05-08 01:17 | 45.70591 | -4.95284 | 29943 ft | 487 kts | 205° |
| 2026-05-08 01:18 | 45.64311 | -4.98790 | 29944 ft | 487 kts | 205° |
| 2026-05-08 01:18 | 45.57998 | -5.02307 | 29938 ft | 487 kts | 205° |
| 2026-05-08 01:19 | 45.51687 | -5.05814 | 29936 ft | 486 kts | 205° |
| 2026-05-08 01:19 | 45.45380 | -5.09310 | 29933 ft | 486 kts | 205° |
| 2026-05-08 01:20 | 45.39066 | -5.12802 | 29926 ft | 486 kts | 205° |
| 2026-05-08 01:20 | 45.32763 | -5.16280 | 29927 ft | 486 kts | 205° |
| 2026-05-08 01:21 | 45.26466 | -5.19745 | 29927 ft | 485 kts | 205° |
| 2026-05-08 01:21 | 45.20167 | -5.23204 | 29922 ft | 485 kts | 205° |
| 2026-05-08 01:22 | 45.13884 | -5.26645 | 29920 ft | 484 kts | 205° |
| 2026-05-08 01:22 | 45.07651 | -5.30051 | 29922 ft | 482 kts | 205° |
| 2026-05-08 01:23 | 45.01387 | -5.33467 | 29924 ft | 481 kts | 205° |
| 2026-05-08 01:23 | 44.95139 | -5.36865 | 29917 ft | 480 kts | 205° |
| 2026-05-08 01:24 | 44.88908 | -5.40246 | 29917 ft | 479 kts | 205° |
| 2026-05-08 01:24 | 44.82686 | -5.43615 | 29912 ft | 478 kts | 205° |
| 2026-05-08 01:25 | 44.76481 | -5.46968 | 29911 ft | 477 kts | 205° |
| 2026-05-08 01:25 | 44.70283 | -5.50308 | 29904 ft | 476 kts | 204° |
| 2026-05-08 01:26 | 44.64146 | -5.53610 | 29907 ft | 475 kts | 204° |
| 2026-05-08 01:26 | 44.58113 | -5.56925 | 29899 ft | 473 kts | 206° |
| 2026-05-08 01:27 | 44.52093 | -5.60655 | 29898 ft | 472 kts | 207° |
| 2026-05-08 01:27 | 44.46100 | -5.64453 | 29897 ft | 472 kts | 207° |
| 2026-05-08 01:28 | 44.40105 | -5.68193 | 29895 ft | 472 kts | 207° |
| 2026-05-08 01:28 | 44.34094 | -5.71894 | 29891 ft | 471 kts | 207° |
| 2026-05-08 01:29 | 44.28126 | -5.75549 | 29888 ft | 471 kts | 207° |
| 2026-05-08 01:29 | 44.22126 | -5.79215 | 29889 ft | 470 kts | 206° |
| 2026-05-08 01:30 | 44.16135 | -5.82870 | 29885 ft | 470 kts | 206° |
| 2026-05-08 01:30 | 44.10155 | -5.86511 | 29887 ft | 469 kts | 206° |
| 2026-05-08 01:31 | 44.04181 | -5.90140 | 29889 ft | 468 kts | 206° |
| 2026-05-08 01:31 | 43.98221 | -5.93754 | 29886 ft | 467 kts | 206° |
| 2026-05-08 01:32 | 43.92264 | -5.97357 | 29884 ft | 467 kts | 206° |
| 2026-05-08 01:32 | 43.86299 | -6.00957 | 29883 ft | 466 kts | 206° |
| 2026-05-08 01:33 | 43.80351 | -6.04539 | 29884 ft | 466 kts | 206° |
| 2026-05-08 01:33 | 43.74423 | -6.08101 | 29888 ft | 466 kts | 205° |
| 2026-05-08 01:34 | 43.68476 | -6.11667 | 29881 ft | 466 kts | 205° |
| 2026-05-08 01:34 | 43.62518 | -6.15231 | 29886 ft | 466 kts | 205° |
| 2026-05-08 01:35 | 43.56560 | -6.18788 | 29883 ft | 466 kts | 205° |
| 2026-05-08 01:35 | 43.50606 | -6.22335 | 29887 ft | 467 kts | 205° |
| 2026-05-08 01:36 | 43.44637 | -6.25883 | 29887 ft | 467 kts | 205° |
| 2026-05-08 01:36 | 43.38668 | -6.29424 | 29889 ft | 467 kts | 205° |
| 2026-05-08 01:37 | 43.32695 | -6.32960 | 29906 ft | 468 kts | 205° |
| 2026-05-08 01:37 | 43.26716 | -6.36491 | 29909 ft | 468 kts | 205° |
| 2026-05-08 01:38 | 43.20737 | -6.40013 | 29917 ft | 468 kts | 205° |
| 2026-05-08 01:38 | 43.14794 | -6.43509 | 29913 ft | 467 kts | 205° |
| 2026-05-08 01:39 | 43.08818 | -6.47016 | 29920 ft | 466 kts | 205° |
| 2026-05-08 01:39 | 43.02851 | -6.50510 | 29901 ft | 465 kts | 205° |
| 2026-05-08 01:40 | 42.96905 | -6.53983 | 29912 ft | 465 kts | 205° |
| 2026-05-08 01:40 | 42.90956 | -6.57454 | 29903 ft | 464 kts | 204° |
| 2026-05-08 01:41 | 42.85042 | -6.60896 | 29911 ft | 464 kts | 204° |
| 2026-05-08 01:41 | 42.79103 | -6.64343 | 29915 ft | 464 kts | 204° |
| 2026-05-08 01:42 | 42.73146 | -6.67796 | 29906 ft | 465 kts | 204° |
| 2026-05-08 01:42 | 42.67185 | -6.71243 | 29901 ft | 465 kts | 204° |
| 2026-05-08 01:43 | 42.61225 | -6.74682 | 29900 ft | 465 kts | 204° |
| 2026-05-08 01:43 | 42.55268 | -6.78112 | 29905 ft | 465 kts | 204° |
| 2026-05-08 01:44 | 42.49310 | -6.81536 | 29904 ft | 465 kts | 204° |
| 2026-05-08 01:44 | 42.43402 | -6.84924 | 29911 ft | 464 kts | 204° |
| 2026-05-08 01:45 | 42.37451 | -6.88329 | 29902 ft | 463 kts | 203° |
| 2026-05-08 01:45 | 42.31509 | -6.91723 | 29908 ft | 463 kts | 203° |
| 2026-05-08 01:46 | 42.25573 | -6.95106 | 29906 ft | 463 kts | 203° |
| 2026-05-08 01:46 | 42.19639 | -6.98480 | 29892 ft | 462 kts | 203° |
| 2026-05-08 01:47 | 42.13705 | -7.01849 | 29914 ft | 462 kts | 203° |
| 2026-05-08 01:47 | 42.07808 | -7.05190 | 29897 ft | 462 kts | 203° |
| 2026-05-08 01:48 | 41.98905 | -7.10220 | 29889 ft | 463 kts | 203° |
| 2026-05-08 01:48 | 41.92970 | -7.13566 | 29897 ft | 462 kts | 203° |
| 2026-05-08 01:49 | 41.87029 | -7.16908 | 29899 ft | 462 kts | 203° |
| 2026-05-08 01:49 | 41.81131 | -7.20220 | 29894 ft | 462 kts | 202° |
| 2026-05-08 01:50 | 41.75222 | -7.23604 | 29898 ft | 461 kts | 205° |
| 2026-05-08 01:50 | 41.69655 | -7.27884 | 29903 ft | 461 kts | 211° |
| 2026-05-08 01:51 | 41.64160 | -7.32330 | 29899 ft | 461 kts | 210° |
| 2026-05-08 01:51 | 41.58648 | -7.36749 | 29895 ft | 461 kts | 210° |
| 2026-05-08 01:52 | 41.53171 | -7.41114 | 29898 ft | 461 kts | 210° |
| 2026-05-08 01:52 | 41.47661 | -7.45494 | 29901 ft | 461 kts | 210° |
| 2026-05-08 01:53 | 41.42148 | -7.49867 | 29903 ft | 461 kts | 210° |
| 2026-05-08 01:53 | 41.36633 | -7.54233 | 29908 ft | 460 kts | 210° |
| 2026-05-08 01:54 | 41.31125 | -7.58586 | 29906 ft | 460 kts | 210° |
| 2026-05-08 01:54 | 41.25653 | -7.62902 | 29912 ft | 460 kts | 210° |
| 2026-05-08 01:55 | 41.20142 | -7.67240 | 29912 ft | 460 kts | 210° |
| 2026-05-08 01:55 | 41.14629 | -7.71572 | 29916 ft | 460 kts | 209° |
| 2026-05-08 01:56 | 41.09122 | -7.75889 | 29923 ft | 460 kts | 209° |
| 2026-05-08 01:56 | 41.03605 | -7.80207 | 29918 ft | 460 kts | 209° |
| 2026-05-08 01:57 | 40.99016 | -7.83791 | 29912 ft | 460 kts | 209° |
| 2026-05-08 01:57 | 40.92596 | -7.88795 | 29917 ft | 461 kts | 209° |
| 2026-05-08 01:58 | 40.87069 | -7.93094 | 29917 ft | 461 kts | 209° |
| 2026-05-08 01:58 | 40.82473 | -7.96664 | 29915 ft | 461 kts | 209° |
| 2026-05-08 01:59 | 40.76947 | -8.00947 | 29919 ft | 460 kts | 208° |
| 2026-05-08 01:59 | 40.71430 | -8.05216 | 29924 ft | 459 kts | 208° |
| 2026-05-08 02:00 | 40.65924 | -8.09467 | 29914 ft | 458 kts | 208° |
| 2026-05-08 02:00 | 40.60423 | -8.13707 | 29915 ft | 457 kts | 208° |
| 2026-05-08 02:01 | 40.54928 | -8.17932 | 29921 ft | 457 kts | 208° |
| 2026-05-08 02:01 | 40.49446 | -8.22142 | 29908 ft | 456 kts | 208° |
| 2026-05-08 02:02 | 40.43971 | -8.26335 | 29913 ft | 455 kts | 208° |
| 2026-05-08 02:02 | 40.38536 | -8.30493 | 29918 ft | 454 kts | 208° |
| 2026-05-08 02:03 | 40.33081 | -8.34657 | 29910 ft | 453 kts | 208° |
| 2026-05-08 02:03 | 40.27630 | -8.38810 | 29908 ft | 453 kts | 208° |
| 2026-05-08 02:04 | 40.22190 | -8.42947 | 29913 ft | 452 kts | 207° |
| 2026-05-08 02:04 | 40.16749 | -8.47076 | 29919 ft | 452 kts | 207° |
| 2026-05-08 02:05 | 40.11297 | -8.51206 | 29917 ft | 452 kts | 207° |
| 2026-05-08 02:05 | 40.05880 | -8.55302 | 29920 ft | 453 kts | 207° |
| 2026-05-08 02:06 | 40.00425 | -8.59420 | 29905 ft | 453 kts | 207° |
| 2026-05-08 02:06 | 39.94962 | -8.63536 | 29904 ft | 454 kts | 207° |
| 2026-05-08 02:07 | 39.89484 | -8.67654 | 29914 ft | 455 kts | 207° |
| 2026-05-08 02:07 | 39.83997 | -8.71773 | 29907 ft | 455 kts | 207° |
| 2026-05-08 02:08 | 39.78500 | -8.75891 | 29918 ft | 456 kts | 207° |
| 2026-05-08 02:08 | 39.73005 | -8.80000 | 29889 ft | 456 kts | 207° |
| 2026-05-08 02:09 | 39.67508 | -8.84103 | 29896 ft | 455 kts | 207° |
| 2026-05-08 02:09 | 39.62049 | -8.88171 | 29899 ft | 454 kts | 207° |
| 2026-05-08 02:10 | 39.56564 | -8.92250 | 29906 ft | 454 kts | 207° |
| 2026-05-08 02:10 | 39.51082 | -8.96319 | 29906 ft | 454 kts | 207° |
| 2026-05-08 02:11 | 39.45606 | -9.00376 | 29908 ft | 453 kts | 207° |
| 2026-05-08 02:11 | 39.40170 | -9.04397 | 29909 ft | 452 kts | 206° |
| 2026-05-08 02:12 | 39.34705 | -9.08431 | 29913 ft | 452 kts | 206° |
| 2026-05-08 02:12 | 39.29239 | -9.12458 | 29910 ft | 452 kts | 206° |
| 2026-05-08 02:13 | 39.23776 | -9.16476 | 29905 ft | 452 kts | 206° |
| 2026-05-08 02:13 | 39.18318 | -9.20483 | 29910 ft | 451 kts | 206° |
| 2026-05-08 02:14 | 39.12852 | -9.24490 | 29911 ft | 452 kts | 206° |
| 2026-05-08 02:14 | 39.07379 | -9.28495 | 29910 ft | 452 kts | 206° |
| 2026-05-08 02:15 | 39.01943 | -9.32464 | 29921 ft | 452 kts | 206° |
| 2026-05-08 02:15 | 38.96464 | -9.36457 | 29917 ft | 452 kts | 206° |
| 2026-05-08 02:16 | 38.90988 | -9.40441 | 29911 ft | 452 kts | 206° |
| 2026-05-08 02:16 | 38.85519 | -9.44414 | 29919 ft | 451 kts | 206° |
| 2026-05-08 02:17 | 38.80057 | -9.48375 | 29912 ft | 450 kts | 206° |
| 2026-05-08 02:17 | 38.74649 | -9.52290 | 29923 ft | 449 kts | 206° |
| 2026-05-08 02:18 | 38.69209 | -9.56219 | 29905 ft | 448 kts | 206° |
| 2026-05-08 02:18 | 38.63778 | -9.60136 | 29907 ft | 448 kts | 206° |
| 2026-05-08 02:19 | 38.58348 | -9.64045 | 29917 ft | 448 kts | 206° |
| 2026-05-08 02:19 | 38.52905 | -9.67957 | 29922 ft | 449 kts | 206° |
| 2026-05-08 02:20 | 38.47459 | -9.71864 | 29919 ft | 449 kts | 206° |
| 2026-05-08 02:20 | 38.42007 | -9.75768 | 29923 ft | 449 kts | 206° |
| 2026-05-08 02:21 | 38.36550 | -9.79670 | 29922 ft | 449 kts | 206° |
| 2026-05-08 02:21 | 38.31125 | -9.83542 | 29920 ft | 449 kts | 206° |
| 2026-05-08 02:22 | 38.25662 | -9.87434 | 29918 ft | 449 kts | 206° |
| 2026-05-08 02:22 | 38.20207 | -9.91314 | 29921 ft | 449 kts | 207° |
| 2026-05-08 02:23 | 38.14769 | -9.95175 | 29923 ft | 449 kts | 207° |
| 2026-05-08 02:23 | 38.09272 | -9.99071 | 29924 ft | 450 kts | 207° |
| 2026-05-08 02:24 | 38.03838 | -10.02916 | 29923 ft | 450 kts | 207° |
| 2026-05-08 02:24 | 37.98363 | -10.06782 | 29923 ft | 451 kts | 207° |
| 2026-05-08 02:25 | 37.92872 | -10.10654 | 29922 ft | 452 kts | 207° |
| 2026-05-08 02:25 | 37.87372 | -10.14525 | 29917 ft | 452 kts | 208° |
| 2026-05-08 02:26 | 37.81869 | -10.18392 | 29919 ft | 453 kts | 208° |
| 2026-05-08 02:26 | 37.76343 | -10.22268 | 29921 ft | 454 kts | 208° |
| 2026-05-08 02:27 | 37.70803 | -10.26148 | 29923 ft | 455 kts | 208° |
| 2026-05-08 02:27 | 37.65291 | -10.30001 | 29917 ft | 456 kts | 209° |
| 2026-05-08 02:28 | 37.59730 | -10.33882 | 29917 ft | 457 kts | 209° |
| 2026-05-08 02:28 | 37.54156 | -10.37765 | 29917 ft | 457 kts | 210° |
| 2026-05-08 02:29 | 37.48566 | -10.41653 | 29918 ft | 458 kts | 210° |
| 2026-05-08 02:29 | 37.42985 | -10.45528 | 29918 ft | 459 kts | 210° |
| 2026-05-08 02:30 | 37.37388 | -10.49406 | 29917 ft | 459 kts | 211° |
| 2026-05-08 02:30 | 37.31794 | -10.53277 | 29918 ft | 459 kts | 211° |
| 2026-05-08 02:31 | 37.26234 | -10.57117 | 29915 ft | 459 kts | 211° |
| 2026-05-08 02:31 | 37.20628 | -10.60982 | 29917 ft | 460 kts | 212° |
| 2026-05-08 02:32 | 37.15018 | -10.64844 | 29913 ft | 460 kts | 212° |
| 2026-05-08 02:32 | 37.09390 | -10.68711 | 29915 ft | 460 kts | 212° |
| 2026-05-08 02:33 | 37.03778 | -10.72562 | 29915 ft | 460 kts | 213° |
| 2026-05-08 02:33 | 36.98156 | -10.76412 | 29916 ft | 460 kts | 213° |
| 2026-05-08 02:34 | 36.92577 | -10.80226 | 29918 ft | 460 kts | 213° |
| 2026-05-08 02:34 | 36.86961 | -10.84059 | 29916 ft | 460 kts | 213° |
| 2026-05-08 02:35 | 36.81353 | -10.87879 | 29911 ft | 459 kts | 214° |
| 2026-05-08 02:35 | 36.75740 | -10.91698 | 29911 ft | 458 kts | 214° |
| 2026-05-08 02:36 | 36.70139 | -10.95501 | 29911 ft | 457 kts | 214° |
| 2026-05-08 02:36 | 36.64550 | -10.99289 | 29913 ft | 456 kts | 214° |
| 2026-05-08 02:37 | 36.58980 | -11.03059 | 29909 ft | 455 kts | 214° |
| 2026-05-08 02:37 | 36.53444 | -11.06801 | 29909 ft | 455 kts | 214° |
| 2026-05-08 02:38 | 36.47885 | -11.10551 | 29909 ft | 454 kts | 214° |
| 2026-05-08 02:38 | 36.42334 | -11.14289 | 29904 ft | 454 kts | 214° |
| 2026-05-08 02:39 | 36.36774 | -11.18028 | 29910 ft | 454 kts | 214° |
| 2026-05-08 02:39 | 36.31227 | -11.21752 | 29908 ft | 453 kts | 214° |
| 2026-05-08 02:40 | 36.25683 | -11.25468 | 29911 ft | 453 kts | 214° |
| 2026-05-08 02:40 | 36.20136 | -11.29180 | 29908 ft | 453 kts | 214° |
| 2026-05-08 02:41 | 36.14593 | -11.32883 | 29901 ft | 452 kts | 214° |
| 2026-05-08 02:41 | 36.09091 | -11.36553 | 29903 ft | 452 kts | 214° |
| 2026-05-08 02:42 | 36.03523 | -11.40262 | 29904 ft | 452 kts | 214° |
| 2026-05-08 02:42 | 35.98025 | -11.43918 | 29908 ft | 451 kts | 214° |
| 2026-05-08 02:43 | 35.92455 | -11.47522 | 29908 ft | 452 kts | 213° |
| 2026-05-08 02:43 | 35.86821 | -11.51016 | 29910 ft | 452 kts | 213° |
| 2026-05-08 02:44 | 35.82137 | -11.53911 | 29908 ft | 452 kts | 213° |
| 2026-05-08 02:44 | 35.76515 | -11.57399 | 29908 ft | 452 kts | 213° |
| 2026-05-08 02:45 | 35.70904 | -11.60888 | 29911 ft | 452 kts | 213° |
| 2026-05-08 02:45 | 35.65330 | -11.64351 | 29906 ft | 451 kts | 213° |
| 2026-05-08 02:46 | 35.59730 | -11.67825 | 29910 ft | 451 kts | 213° |
| 2026-05-08 02:46 | 35.54128 | -11.71295 | 29909 ft | 450 kts | 213° |
| 2026-05-08 02:47 | 35.48538 | -11.74752 | 29910 ft | 450 kts | 213° |
| 2026-05-08 02:47 | 35.42943 | -11.78206 | 29911 ft | 449 kts | 213° |
| 2026-05-08 02:48 | 35.37352 | -11.81652 | 29909 ft | 449 kts | 213° |
| 2026-05-08 02:48 | 35.31806 | -11.85066 | 29910 ft | 449 kts | 213° |
| 2026-05-08 02:49 | 35.26225 | -11.88495 | 29914 ft | 448 kts | 213° |
| 2026-05-08 02:49 | 35.20649 | -11.91916 | 29908 ft | 448 kts | 213° |
| 2026-05-08 02:50 | 35.15063 | -11.95339 | 29917 ft | 448 kts | 213° |
| 2026-05-08 02:50 | 35.09484 | -11.98751 | 29915 ft | 448 kts | 213° |
| 2026-05-08 02:51 | 35.03946 | -12.02132 | 29916 ft | 447 kts | 213° |
| 2026-05-08 02:51 | 34.98385 | -12.05523 | 29918 ft | 447 kts | 213° |
| 2026-05-08 02:52 | 34.92817 | -12.08913 | 29915 ft | 447 kts | 213° |
| 2026-05-08 02:52 | 34.87262 | -12.12291 | 29917 ft | 446 kts | 213° |
| 2026-05-08 02:53 | 34.81703 | -12.15665 | 29919 ft | 446 kts | 213° |
| 2026-05-08 02:53 | 34.76146 | -12.19033 | 29919 ft | 446 kts | 213° |
| 2026-05-08 02:54 | 34.70599 | -12.22389 | 29922 ft | 445 kts | 213° |
| 2026-05-08 02:54 | 34.65051 | -12.25742 | 29920 ft | 445 kts | 213° |
| 2026-05-08 02:55 | 34.56731 | -12.30760 | 29919 ft | 445 kts | 213° |
| 2026-05-08 02:56 | 34.51188 | -12.34097 | 29922 ft | 445 kts | 213° |
| 2026-05-08 02:56 | 34.45662 | -12.37418 | 29918 ft | 445 kts | 213° |
| 2026-05-08 02:57 | 34.40117 | -12.40746 | 29921 ft | 445 kts | 213° |
| 2026-05-08 02:57 | 34.34565 | -12.44074 | 29916 ft | 445 kts | 213° |
| 2026-05-08 02:58 | 34.29019 | -12.47393 | 29929 ft | 445 kts | 213° |
| 2026-05-08 02:58 | 34.23471 | -12.50708 | 29928 ft | 445 kts | 213° |
| 2026-05-08 02:59 | 34.17921 | -12.54020 | 29925 ft | 444 kts | 213° |
| 2026-05-08 02:59 | 34.12406 | -12.57305 | 29927 ft | 444 kts | 213° |
| 2026-05-08 03:00 | 34.06862 | -12.60603 | 29928 ft | 444 kts | 213° |
| 2026-05-08 03:00 | 34.01311 | -12.63900 | 29920 ft | 444 kts | 213° |
| 2026-05-08 03:01 | 33.95769 | -12.67188 | 29933 ft | 444 kts | 213° |
| 2026-05-08 03:01 | 33.90212 | -12.70479 | 29923 ft | 445 kts | 213° |
| 2026-05-08 03:02 | 33.84658 | -12.73764 | 29931 ft | 445 kts | 213° |
| 2026-05-08 03:02 | 33.79133 | -12.77027 | 29930 ft | 445 kts | 212° |
| 2026-05-08 03:03 | 33.73573 | -12.80305 | 29932 ft | 445 kts | 212° |
| 2026-05-08 03:03 | 33.68006 | -12.83583 | 29930 ft | 445 kts | 212° |
| 2026-05-08 03:04 | 33.62449 | -12.86851 | 29934 ft | 445 kts | 212° |
| 2026-05-08 03:04 | 33.56891 | -12.90114 | 29933 ft | 445 kts | 212° |
| 2026-05-08 03:05 | 33.51368 | -12.93352 | 29933 ft | 444 kts | 212° |
| 2026-05-08 03:05 | 33.45816 | -12.96603 | 29931 ft | 444 kts | 212° |
| 2026-05-08 03:06 | 33.40266 | -12.99847 | 29935 ft | 444 kts | 212° |
| 2026-05-08 03:06 | 33.34718 | -13.03086 | 29934 ft | 443 kts | 212° |
| 2026-05-08 03:07 | 33.29168 | -13.06322 | 29938 ft | 443 kts | 212° |
| 2026-05-08 03:07 | 33.23621 | -13.09551 | 29930 ft | 443 kts | 212° |
| 2026-05-08 03:08 | 33.18108 | -13.12756 | 29937 ft | 443 kts | 212° |
| 2026-05-08 03:08 | 33.12565 | -13.15973 | 29939 ft | 443 kts | 212° |
| 2026-05-08 03:09 | 33.07015 | -13.19191 | 29936 ft | 443 kts | 212° |
| 2026-05-08 03:09 | 33.01473 | -13.22399 | 29934 ft | 443 kts | 212° |
| 2026-05-08 03:10 | 32.95931 | -13.25602 | 29941 ft | 442 kts | 212° |
| 2026-05-08 03:10 | 32.90391 | -13.28800 | 29935 ft | 442 kts | 212° |
| 2026-05-08 03:11 | 32.84883 | -13.31975 | 29949 ft | 442 kts | 212° |
| 2026-05-08 03:11 | 32.79343 | -13.35164 | 29939 ft | 442 kts | 212° |
| 2026-05-08 03:12 | 32.73795 | -13.38353 | 29946 ft | 442 kts | 212° |
| 2026-05-08 03:12 | 32.68251 | -13.41535 | 29944 ft | 442 kts | 212° |
| 2026-05-08 03:13 | 32.62714 | -13.44709 | 29944 ft | 441 kts | 212° |
| 2026-05-08 03:13 | 32.57205 | -13.47863 | 29946 ft | 441 kts | 212° |
| 2026-05-08 03:14 | 32.51674 | -13.51025 | 29946 ft | 441 kts | 212° |
| 2026-05-08 03:14 | 32.46136 | -13.54186 | 29946 ft | 441 kts | 212° |
| 2026-05-08 03:15 | 32.40600 | -13.57342 | 29951 ft | 441 kts | 212° |
| 2026-05-08 03:15 | 32.35070 | -13.60491 | 29951 ft | 441 kts | 212° |
| 2026-05-08 03:16 | 32.29565 | -13.63621 | 29945 ft | 441 kts | 212° |
| 2026-05-08 03:16 | 32.24026 | -13.66766 | 29951 ft | 441 kts | 212° |
| 2026-05-08 03:17 | 32.18488 | -13.69906 | 29966 ft | 441 kts | 212° |
| 2026-05-08 03:17 | 32.12951 | -13.73041 | 29964 ft | 441 kts | 213° |
| 2026-05-08 03:18 | 32.07411 | -13.76174 | 29956 ft | 441 kts | 213° |
| 2026-05-08 03:18 | 32.01894 | -13.79289 | 29952 ft | 441 kts | 213° |
| 2026-05-08 03:19 | 31.96344 | -13.82419 | 29955 ft | 441 kts | 213° |
| 2026-05-08 03:19 | 31.90805 | -13.85538 | 29950 ft | 441 kts | 213° |
| 2026-05-08 03:20 | 31.85294 | -13.88638 | 29955 ft | 441 kts | 213° |
| 2026-05-08 03:20 | 31.79748 | -13.91753 | 29966 ft | 441 kts | 213° |
| 2026-05-08 03:21 | 31.74202 | -13.94865 | 29961 ft | 442 kts | 213° |
| 2026-05-08 03:21 | 31.68642 | -13.97979 | 29962 ft | 442 kts | 213° |
| 2026-05-08 03:22 | 31.63090 | -14.01085 | 29964 ft | 442 kts | 213° |
| 2026-05-08 03:22 | 31.57563 | -14.04173 | 29964 ft | 442 kts | 213° |
| 2026-05-08 03:23 | 31.52005 | -14.07274 | 29967 ft | 442 kts | 213° |
| 2026-05-08 03:23 | 31.46444 | -14.10372 | 29963 ft | 442 kts | 213° |
| 2026-05-08 03:24 | 31.40875 | -14.13471 | 29963 ft | 443 kts | 213° |
| 2026-05-08 03:24 | 31.35340 | -14.16548 | 29972 ft | 443 kts | 213° |
| 2026-05-08 03:25 | 31.29766 | -14.19642 | 29971 ft | 443 kts | 213° |
| 2026-05-08 03:25 | 31.24203 | -14.22725 | 29965 ft | 443 kts | 213° |
| 2026-05-08 03:26 | 31.18624 | -14.25814 | 29972 ft | 443 kts | 213° |
| 2026-05-08 03:26 | 31.13048 | -14.28896 | 29972 ft | 443 kts | 213° |
| 2026-05-08 03:27 | 31.07509 | -14.31955 | 29973 ft | 443 kts | 213° |
| 2026-05-08 03:27 | 31.01927 | -14.35034 | 29985 ft | 443 kts | 213° |
| 2026-05-08 03:28 | 30.96361 | -14.38100 | 29975 ft | 443 kts | 213° |
| 2026-05-08 03:28 | 30.90786 | -14.41167 | 29971 ft | 443 kts | 213° |
| 2026-05-08 03:29 | 30.85253 | -14.44292 | 29973 ft | 441 kts | 214° |
| 2026-05-08 03:29 | 30.79767 | -14.47486 | 29971 ft | 441 kts | 214° |
| 2026-05-08 03:30 | 30.71523 | -14.52275 | 29967 ft | 441 kts | 214° |
| 2026-05-08 03:31 | 30.60533 | -14.58612 | 29973 ft | 442 kts | 214° |
| 2026-05-08 03:32 | 30.52258 | -14.63370 | 29978 ft | 442 kts | 214° |
| 2026-05-08 03:32 | 30.47674 | -14.66001 | 29977 ft | 443 kts | 214° |
| 2026-05-08 03:33 | 30.41209 | -14.69708 | 29976 ft | 443 kts | 214° |
| 2026-05-08 03:33 | 30.36609 | -14.72342 | 29977 ft | 444 kts | 214° |
| 2026-05-08 03:34 | 30.31066 | -14.75513 | 29984 ft | 444 kts | 214° |
| 2026-05-08 03:34 | 30.25519 | -14.78681 | 29981 ft | 445 kts | 214° |
| 2026-05-08 03:35 | 30.20005 | -14.81828 | 29976 ft | 445 kts | 214° |
| 2026-05-08 03:35 | 30.14449 | -14.84993 | 29981 ft | 445 kts | 214° |
| 2026-05-08 03:36 | 30.08884 | -14.88160 | 29979 ft | 446 kts | 214° |
| 2026-05-08 03:36 | 30.03324 | -14.91321 | 29983 ft | 446 kts | 214° |
| 2026-05-08 03:37 | 29.97748 | -14.94486 | 29983 ft | 447 kts | 214° |
| 2026-05-08 03:37 | 29.92157 | -14.97656 | 29990 ft | 447 kts | 214° |
| 2026-05-08 03:38 | 29.86599 | -15.00803 | 29987 ft | 448 kts | 214° |
| 2026-05-08 03:38 | 29.81000 | -15.03969 | 29992 ft | 448 kts | 214° |
| 2026-05-08 03:39 | 29.75394 | -15.07136 | 29990 ft | 449 kts | 214° |
| 2026-05-08 03:39 | 29.69786 | -15.10300 | 29995 ft | 449 kts | 213° |
| 2026-05-08 03:40 | 29.64161 | -15.13469 | 29991 ft | 450 kts | 213° |
| 2026-05-08 03:40 | 29.58568 | -15.16616 | 29987 ft | 450 kts | 213° |
| 2026-05-08 03:41 | 29.52932 | -15.19783 | 29992 ft | 450 kts | 213° |
| 2026-05-08 03:41 | 29.47296 | -15.22947 | 29990 ft | 451 kts | 213° |
| 2026-05-08 03:42 | 29.41652 | -15.26111 | 29991 ft | 451 kts | 213° |
| 2026-05-08 03:42 | 29.36034 | -15.29257 | 29993 ft | 452 kts | 213° |
| 2026-05-08 03:43 | 29.30376 | -15.32421 | 29998 ft | 452 kts | 213° |
| 2026-05-08 03:43 | 29.24716 | -15.35582 | 29994 ft | 452 kts | 213° |
| 2026-05-08 03:44 | 29.19091 | -15.38720 | 29984 ft | 453 kts | 213° |
| 2026-05-08 03:44 | 29.13415 | -15.41882 | 29995 ft | 454 kts | 213° |
| 2026-05-08 03:45 | 29.07740 | -15.45040 | 29994 ft | 454 kts | 213° |
| 2026-05-08 03:45 | 29.02060 | -15.48197 | 29996 ft | 454 kts | 213° |
| 2026-05-08 03:46 | 28.96359 | -15.51362 | 29994 ft | 455 kts | 213° |
| 2026-05-08 03:46 | 28.90671 | -15.54515 | 29991 ft | 455 kts | 213° |
| 2026-05-08 03:47 | 28.84972 | -15.57671 | 29993 ft | 455 kts | 212° |
| 2026-05-08 03:47 | 28.79299 | -15.60808 | 29992 ft | 455 kts | 212° |
| 2026-05-08 03:48 | 28.73594 | -15.63959 | 29988 ft | 456 kts | 212° |
| 2026-05-08 03:48 | 28.67879 | -15.67113 | 29989 ft | 456 kts | 212° |
| 2026-05-08 03:49 | 28.62162 | -15.70263 | 29988 ft | 456 kts | 212° |
| 2026-05-08 03:49 | 28.56435 | -15.73415 | 29988 ft | 457 kts | 212° |
| 2026-05-08 03:50 | 28.50710 | -15.76562 | 29983 ft | 457 kts | 212° |
| 2026-05-08 03:50 | 28.44980 | -15.79708 | 29987 ft | 457 kts | 212° |
| 2026-05-08 03:51 | 28.39282 | -15.82833 | 29986 ft | 458 kts | 212° |
| 2026-05-08 03:51 | 28.33534 | -15.85982 | 29994 ft | 458 kts | 212° |
| 2026-05-08 03:52 | 28.27793 | -15.89122 | 29993 ft | 458 kts | 212° |
| 2026-05-08 03:52 | 28.22043 | -15.92264 | 29996 ft | 459 kts | 212° |
| 2026-05-08 03:53 | 28.16322 | -15.95387 | 29987 ft | 459 kts | 212° |
| 2026-05-08 03:53 | 28.10559 | -15.98528 | 29980 ft | 460 kts | 212° |
| 2026-05-08 03:54 | 28.04792 | -16.01668 | 29997 ft | 460 kts | 212° |
| 2026-05-08 03:54 | 27.99014 | -16.04809 | 29991 ft | 460 kts | 212° |
| 2026-05-08 03:55 | 27.93243 | -16.07944 | 30001 ft | 460 kts | 212° |
| 2026-05-08 03:55 | 27.87462 | -16.11081 | 29988 ft | 461 kts | 212° |
| 2026-05-08 03:56 | 27.81679 | -16.14215 | 29994 ft | 461 kts | 212° |
| 2026-05-08 03:56 | 27.75939 | -16.17323 | 29996 ft | 461 kts | 212° |
| 2026-05-08 03:57 | 27.70148 | -16.20453 | 29994 ft | 462 kts | 212° |
| 2026-05-08 03:57 | 27.64350 | -16.23581 | 29995 ft | 462 kts | 211° |
| 2026-05-08 03:58 | 27.58537 | -16.26715 | 29992 ft | 462 kts | 211° |
| 2026-05-08 03:58 | 27.52728 | -16.29843 | 29999 ft | 463 kts | 211° |
| 2026-05-08 03:59 | 27.46917 | -16.32970 | 29996 ft | 463 kts | 211° |
| 2026-05-08 03:59 | 27.41132 | -16.36079 | 29999 ft | 463 kts | 211° |
| 2026-05-08 04:00 | 27.35308 | -16.39205 | 29992 ft | 464 kts | 211° |
| 2026-05-08 04:00 | 27.29476 | -16.42331 | 29996 ft | 464 kts | 211° |
| 2026-05-08 04:01 | 27.23646 | -16.45453 | 29993 ft | 464 kts | 211° |
| 2026-05-08 04:01 | 27.17818 | -16.48571 | 29993 ft | 464 kts | 211° |
| 2026-05-08 04:02 | 27.11993 | -16.51683 | 29996 ft | 464 kts | 211° |
| 2026-05-08 04:02 | 27.06187 | -16.54781 | 30000 ft | 464 kts | 211° |
| 2026-05-08 04:03 | 27.00349 | -16.57893 | 29994 ft | 465 kts | 211° |
| 2026-05-08 04:03 | 26.91562 | -16.62570 | 29994 ft | 466 kts | 211° |
| 2026-05-08 04:04 | 26.85701 | -16.65685 | 29992 ft | 466 kts | 211° |
| 2026-05-08 04:04 | 26.79837 | -16.68798 | 29989 ft | 467 kts | 211° |
| 2026-05-08 04:05 | 26.73966 | -16.71911 | 29989 ft | 467 kts | 211° |
| 2026-05-08 04:05 | 26.68079 | -16.75029 | 29990 ft | 468 kts | 211° |
| 2026-05-08 04:06 | 26.62231 | -16.78123 | 29995 ft | 468 kts | 211° |
| 2026-05-08 04:06 | 26.56338 | -16.81237 | 29992 ft | 469 kts | 210° |
| 2026-05-08 04:07 | 26.50440 | -16.84351 | 29991 ft | 469 kts | 210° |
| 2026-05-08 04:07 | 26.44521 | -16.87471 | 30005 ft | 470 kts | 210° |
| 2026-05-08 04:08 | 26.38611 | -16.90584 | 29995 ft | 470 kts | 210° |
| 2026-05-08 04:08 | 26.32679 | -16.93704 | 29998 ft | 472 kts | 210° |
| 2026-05-08 04:09 | 26.29708 | -16.95266 | 30184 ft | 473 kts | 210° |
| 2026-05-08 04:09 | 26.26746 | -16.96821 | 30525 ft | 470 kts | 210° |
| 2026-05-08 04:09 | 26.23785 | -16.98374 | 30871 ft | 468 kts | 210° |
| 2026-05-08 04:09 | 26.20845 | -16.99915 | 31187 ft | 466 kts | 210° |
| 2026-05-08 04:10 | 26.17911 | -17.01454 | 31462 ft | 466 kts | 210° |
| 2026-05-08 04:10 | 26.15019 | -17.02969 | 31697 ft | 465 kts | 210° |
| 2026-05-08 04:10 | 26.12095 | -17.04502 | 31889 ft | 466 kts | 210° |
| 2026-05-08 04:10 | 26.09153 | -17.06044 | 31925 ft | 468 kts | 210° |
| 2026-05-08 04:11 | 26.03268 | -17.09123 | 31996 ft | 467 kts | 210° |
| 2026-05-08 04:11 | 25.97399 | -17.12189 | 31993 ft | 466 kts | 210° |
| 2026-05-08 04:12 | 25.91526 | -17.15254 | 31994 ft | 466 kts | 210° |
| 2026-05-08 04:12 | 25.85655 | -17.18315 | 31995 ft | 466 kts | 210° |
| 2026-05-08 04:13 | 25.79786 | -17.21372 | 31993 ft | 466 kts | 210° |
| 2026-05-08 04:13 | 25.73930 | -17.24419 | 31992 ft | 467 kts | 210° |
| 2026-05-08 04:14 | 25.68041 | -17.27479 | 31994 ft | 468 kts | 210° |
| 2026-05-08 04:14 | 25.62134 | -17.30545 | 31992 ft | 469 kts | 210° |
| 2026-05-08 04:15 | 25.56219 | -17.33612 | 31993 ft | 469 kts | 210° |
| 2026-05-08 04:15 | 25.50296 | -17.36680 | 31995 ft | 470 kts | 210° |
| 2026-05-08 04:16 | 25.44368 | -17.39747 | 32000 ft | 471 kts | 210° |
| 2026-05-08 04:16 | 25.38431 | -17.42815 | 31998 ft | 471 kts | 210° |
| 2026-05-08 04:17 | 25.32488 | -17.45883 | 31999 ft | 471 kts | 210° |
| 2026-05-08 04:17 | 25.26576 | -17.48932 | 31996 ft | 471 kts | 210° |
| 2026-05-08 04:18 | 25.20630 | -17.51995 | 31999 ft | 472 kts | 210° |
| 2026-05-08 04:18 | 25.14672 | -17.55061 | 31999 ft | 472 kts | 210° |
| 2026-05-08 04:19 | 25.08721 | -17.58121 | 31993 ft | 472 kts | 210° |
| 2026-05-08 04:19 | 25.02748 | -17.61189 | 31995 ft | 473 kts | 210° |
| 2026-05-08 04:20 | 24.96986 | -17.64583 | 31996 ft | 467 kts | 217° |
| 2026-05-08 04:20 | 24.91492 | -17.68417 | 31995 ft | 468 kts | 217° |
| 2026-05-08 04:21 | 24.86918 | -17.71607 | 32000 ft | 468 kts | 217° |
| 2026-05-08 04:21 | 24.81393 | -17.75432 | 31991 ft | 469 kts | 217° |
| 2026-05-08 04:22 | 24.74949 | -17.79870 | 31994 ft | 470 kts | 217° |
| 2026-05-08 04:22 | 24.70299 | -17.83065 | 31995 ft | 470 kts | 217° |
| 2026-05-08 04:23 | 24.64784 | -17.86852 | 31990 ft | 470 kts | 217° |
| 2026-05-08 04:23 | 24.59228 | -17.90664 | 31994 ft | 471 kts | 217° |
| 2026-05-08 04:24 | 24.53669 | -17.94475 | 32004 ft | 471 kts | 217° |
| 2026-05-08 04:24 | 24.48106 | -17.98284 | 32005 ft | 471 kts | 217° |
| 2026-05-08 04:25 | 24.42536 | -18.02093 | 32001 ft | 471 kts | 217° |
| 2026-05-08 04:25 | 24.36964 | -18.05901 | 31997 ft | 472 kts | 217° |
| 2026-05-08 04:26 | 24.31418 | -18.09687 | 31995 ft | 472 kts | 217° |
| 2026-05-08 04:26 | 24.25827 | -18.13499 | 31994 ft | 472 kts | 217° |
| 2026-05-08 04:27 | 24.20237 | -18.17307 | 31995 ft | 473 kts | 217° |
| 2026-05-08 04:27 | 24.14644 | -18.21112 | 31995 ft | 473 kts | 217° |
| 2026-05-08 04:28 | 24.09080 | -18.24894 | 31997 ft | 474 kts | 217° |
| 2026-05-08 04:28 | 24.03475 | -18.28700 | 31997 ft | 474 kts | 217° |
| 2026-05-08 04:29 | 23.97866 | -18.32504 | 31998 ft | 474 kts | 217° |
| 2026-05-08 04:29 | 23.92248 | -18.36311 | 31997 ft | 475 kts | 217° |
| 2026-05-08 04:30 | 23.86629 | -18.40114 | 31961 ft | 474 kts | 217° |
| 2026-05-08 04:30 | 23.81038 | -18.43893 | 31991 ft | 471 kts | 217° |
| 2026-05-08 04:31 | 23.75498 | -18.47636 | 32000 ft | 470 kts | 217° |
| 2026-05-08 04:31 | 23.69939 | -18.51388 | 32000 ft | 469 kts | 217° |
| 2026-05-08 04:32 | 23.64384 | -18.55133 | 31999 ft | 469 kts | 217° |
| 2026-05-08 04:32 | 23.58821 | -18.58881 | 32001 ft | 470 kts | 217° |
| 2026-05-08 04:33 | 23.53258 | -18.62623 | 32001 ft | 470 kts | 217° |
| 2026-05-08 04:33 | 23.47680 | -18.66373 | 32002 ft | 471 kts | 217° |
| 2026-05-08 04:34 | 23.42084 | -18.70130 | 31997 ft | 472 kts | 216° |
| 2026-05-08 04:34 | 23.36518 | -18.73864 | 31993 ft | 473 kts | 216° |
| 2026-05-08 04:35 | 23.30898 | -18.77629 | 31998 ft | 474 kts | 216° |
| 2026-05-08 04:35 | 23.25274 | -18.81394 | 31999 ft | 474 kts | 216° |
| 2026-05-08 04:36 | 23.19650 | -18.85154 | 31999 ft | 475 kts | 216° |
| 2026-05-08 04:36 | 23.14022 | -18.88915 | 31998 ft | 475 kts | 216° |
| 2026-05-08 04:37 | 23.08427 | -18.92648 | 32001 ft | 475 kts | 216° |
| 2026-05-08 04:37 | 23.02799 | -18.96401 | 32000 ft | 475 kts | 216° |
| 2026-05-08 04:38 | 22.97169 | -19.00151 | 32002 ft | 475 kts | 216° |
| 2026-05-08 04:38 | 22.91534 | -19.03900 | 32000 ft | 475 kts | 216° |
| 2026-05-08 04:39 | 22.85893 | -19.07651 | 32003 ft | 475 kts | 216° |
| 2026-05-08 04:39 | 22.80245 | -19.11401 | 32009 ft | 476 kts | 216° |
| 2026-05-08 04:40 | 22.74601 | -19.15146 | 31999 ft | 476 kts | 216° |
| 2026-05-08 04:40 | 22.68938 | -19.18900 | 31993 ft | 476 kts | 216° |
| 2026-05-08 04:41 | 22.63318 | -19.22621 | 32008 ft | 477 kts | 216° |
| 2026-05-08 04:41 | 22.57654 | -19.26368 | 32006 ft | 477 kts | 216° |
| 2026-05-08 04:42 | 22.51982 | -19.30116 | 32002 ft | 478 kts | 216° |
| 2026-05-08 04:42 | 22.46313 | -19.33859 | 32000 ft | 478 kts | 216° |
| 2026-05-08 04:43 | 22.40630 | -19.37608 | 32005 ft | 478 kts | 216° |
| 2026-05-08 04:43 | 22.34951 | -19.41351 | 32007 ft | 478 kts | 216° |
| 2026-05-08 04:44 | 22.29267 | -19.45092 | 32005 ft | 479 kts | 216° |
| 2026-05-08 04:44 | 22.23572 | -19.48839 | 32006 ft | 479 kts | 216° |
| 2026-05-08 04:45 | 22.17908 | -19.52560 | 32003 ft | 479 kts | 216° |
| 2026-05-08 04:45 | 22.12202 | -19.56308 | 32003 ft | 479 kts | 216° |
| 2026-05-08 04:46 | 22.06499 | -19.60048 | 32001 ft | 480 kts | 216° |
| 2026-05-08 04:46 | 22.00778 | -19.63794 | 32005 ft | 480 kts | 216° |
| 2026-05-08 04:47 | 21.95095 | -19.67515 | 32004 ft | 481 kts | 215° |
| 2026-05-08 04:47 | 21.89369 | -19.71261 | 32006 ft | 481 kts | 215° |
| 2026-05-08 04:48 | 21.83643 | -19.75002 | 32003 ft | 481 kts | 215° |
| 2026-05-08 04:48 | 21.77912 | -19.78745 | 31999 ft | 481 kts | 215° |
| 2026-05-08 04:49 | 21.72211 | -19.82464 | 32005 ft | 481 kts | 215° |
| 2026-05-08 04:49 | 21.66478 | -19.86200 | 32003 ft | 482 kts | 215° |
| 2026-05-08 04:50 | 21.60748 | -19.89931 | 32009 ft | 482 kts | 215° |
| 2026-05-08 04:50 | 21.55001 | -19.93669 | 32004 ft | 482 kts | 215° |
| 2026-05-08 04:51 | 21.49290 | -19.97381 | 32001 ft | 482 kts | 215° |
| 2026-05-08 04:51 | 21.43537 | -20.01116 | 32003 ft | 482 kts | 215° |
| 2026-05-08 04:52 | 21.37791 | -20.04844 | 32006 ft | 483 kts | 215° |
| 2026-05-08 04:52 | 21.32038 | -20.08572 | 32006 ft | 483 kts | 215° |
| 2026-05-08 04:53 | 21.26281 | -20.12300 | 32007 ft | 483 kts | 215° |
| 2026-05-08 04:53 | 21.20524 | -20.16024 | 32006 ft | 483 kts | 214° |
| 2026-05-08 04:54 | 21.14799 | -20.19724 | 32005 ft | 484 kts | 214° |
| 2026-05-08 04:54 | 21.09028 | -20.23450 | 32004 ft | 484 kts | 214° |
| 2026-05-08 04:55 | 21.03248 | -20.27179 | 32005 ft | 484 kts | 214° |
| 2026-05-08 04:55 | 20.97474 | -20.30900 | 32010 ft | 484 kts | 214° |
| 2026-05-08 04:56 | 20.91703 | -20.34617 | 32019 ft | 485 kts | 214° |
| 2026-05-08 04:56 | 20.85918 | -20.38338 | 32001 ft | 485 kts | 214° |
| 2026-05-08 04:57 | 20.80135 | -20.42056 | 31998 ft | 485 kts | 214° |
| 2026-05-08 04:57 | 20.74382 | -20.45750 | 32016 ft | 485 kts | 214° |
| 2026-05-08 04:58 | 20.68585 | -20.49470 | 32014 ft | 485 kts | 214° |
| 2026-05-08 04:58 | 20.62786 | -20.53187 | 32012 ft | 485 kts | 214° |
| 2026-05-08 04:59 | 20.56992 | -20.56898 | 32006 ft | 486 kts | 214° |
| 2026-05-08 04:59 | 20.51194 | -20.60609 | 32008 ft | 486 kts | 214° |
| 2026-05-08 05:00 | 20.45427 | -20.64296 | 32006 ft | 486 kts | 214° |
| 2026-05-08 05:00 | 20.39619 | -20.68008 | 32007 ft | 486 kts | 214° |
| 2026-05-08 05:01 | 20.33803 | -20.71717 | 32007 ft | 487 kts | 214° |
| 2026-05-08 05:01 | 20.27991 | -20.75411 | 32008 ft | 487 kts | 214° |
| 2026-05-08 05:02 | 20.22165 | -20.79110 | 32009 ft | 487 kts | 214° |
| 2026-05-08 05:02 | 20.16349 | -20.82802 | 32008 ft | 487 kts | 214° |
| 2026-05-08 05:03 | 20.10556 | -20.86477 | 32008 ft | 487 kts | 214° |
| 2026-05-08 05:03 | 20.04733 | -20.90168 | 32007 ft | 488 kts | 213° |
| 2026-05-08 05:04 | 19.98903 | -20.93860 | 32005 ft | 488 kts | 213° |
| 2026-05-08 05:04 | 19.93056 | -20.97560 | 32008 ft | 488 kts | 213° |
| 2026-05-08 05:05 | 19.87221 | -21.01249 | 32008 ft | 488 kts | 213° |
| 2026-05-08 05:05 | 19.81385 | -21.04935 | 32005 ft | 488 kts | 213° |
| 2026-05-08 05:06 | 19.75542 | -21.08623 | 32008 ft | 488 kts | 213° |
| 2026-05-08 05:06 | 19.69702 | -21.12306 | 32006 ft | 489 kts | 213° |
| 2026-05-08 05:07 | 19.63887 | -21.15969 | 32009 ft | 489 kts | 213° |
| 2026-05-08 05:07 | 19.58041 | -21.19649 | 32005 ft | 489 kts | 213° |
| 2026-05-08 05:08 | 19.52180 | -21.23335 | 32006 ft | 489 kts | 213° |
| 2026-05-08 05:08 | 19.46324 | -21.27015 | 32008 ft | 489 kts | 213° |
| 2026-05-08 05:09 | 19.41462 | -21.30068 | 32008 ft | 489 kts | 213° |
| 2026-05-08 05:09 | 19.34660 | -21.34336 | 32009 ft | 489 kts | 213° |
| 2026-05-08 05:10 | 19.26829 | -21.39244 | 32011 ft | 489 kts | 213° |
| 2026-05-08 05:11 | 19.20974 | -21.42910 | 32008 ft | 489 kts | 213° |
| 2026-05-08 05:11 | 19.15150 | -21.46553 | 32010 ft | 489 kts | 213° |
| 2026-05-08 05:12 | 19.09284 | -21.50220 | 32006 ft | 489 kts | 213° |
| 2026-05-08 05:12 | 19.03414 | -21.53886 | 32007 ft | 489 kts | 213° |
| 2026-05-08 05:13 | 18.97548 | -21.57546 | 32006 ft | 490 kts | 213° |
| 2026-05-08 05:13 | 18.91677 | -21.61207 | 32008 ft | 490 kts | 213° |
| 2026-05-08 05:14 | 18.85839 | -21.64845 | 32012 ft | 490 kts | 213° |
| 2026-05-08 05:14 | 18.79968 | -21.68499 | 32009 ft | 490 kts | 213° |
| 2026-05-08 05:15 | 18.74091 | -21.72154 | 32007 ft | 490 kts | 213° |
| 2026-05-08 05:15 | 18.68208 | -21.75811 | 32004 ft | 490 kts | 213° |
| 2026-05-08 05:16 | 18.62329 | -21.79462 | 32008 ft | 490 kts | 213° |
| 2026-05-08 05:16 | 18.56457 | -21.83105 | 32011 ft | 490 kts | 213° |
| 2026-05-08 05:17 | 18.50576 | -21.86751 | 32009 ft | 490 kts | 212° |
| 2026-05-08 05:17 | 18.44721 | -21.90378 | 32008 ft | 490 kts | 212° |
| 2026-05-08 05:18 | 18.38837 | -21.94020 | 32007 ft | 491 kts | 212° |
| 2026-05-08 05:18 | 18.32952 | -21.97660 | 32009 ft | 491 kts | 212° |
| 2026-05-08 05:19 | 18.27057 | -22.01303 | 32008 ft | 491 kts | 212° |
| 2026-05-08 05:19 | 18.21158 | -22.04946 | 32007 ft | 491 kts | 212° |
| 2026-05-08 05:20 | 18.15265 | -22.08582 | 32008 ft | 491 kts | 212° |
| 2026-05-08 05:20 | 18.09367 | -22.12218 | 32007 ft | 491 kts | 212° |
| 2026-05-08 05:21 | 18.03516 | -22.15823 | 32007 ft | 491 kts | 212° |
| 2026-05-08 05:21 | 17.97621 | -22.19451 | 32007 ft | 491 kts | 212° |
| 2026-05-08 05:22 | 17.91714 | -22.23084 | 32005 ft | 491 kts | 212° |
| 2026-05-08 05:22 | 17.85803 | -22.26717 | 32006 ft | 492 kts | 212° |
| 2026-05-08 05:23 | 17.79888 | -22.30350 | 32009 ft | 492 kts | 212° |
| 2026-05-08 05:23 | 17.73975 | -22.33978 | 32008 ft | 492 kts | 212° |
| 2026-05-08 05:24 | 17.68105 | -22.37577 | 32009 ft | 492 kts | 212° |
| 2026-05-08 05:24 | 17.62180 | -22.41208 | 32009 ft | 492 kts | 212° |
| 2026-05-08 05:25 | 17.56273 | -22.44824 | 32010 ft | 492 kts | 212° |
| 2026-05-08 05:25 | 17.50358 | -22.48443 | 32002 ft | 492 kts | 212° |
| 2026-05-08 05:26 | 17.44442 | -22.52059 | 32001 ft | 492 kts | 212° |
| 2026-05-08 05:26 | 17.38530 | -22.55671 | 32005 ft | 492 kts | 212° |
| 2026-05-08 05:27 | 17.32605 | -22.59287 | 32003 ft | 492 kts | 212° |
| 2026-05-08 05:27 | 17.26726 | -22.62873 | 32003 ft | 492 kts | 212° |
| 2026-05-08 05:28 | 17.20807 | -22.66481 | 32003 ft | 492 kts | 212° |
| 2026-05-08 05:28 | 17.14888 | -22.70085 | 32003 ft | 492 kts | 212° |
| 2026-05-08 05:29 | 17.08965 | -22.73690 | 32006 ft | 492 kts | 212° |
| 2026-05-08 05:29 | 17.03042 | -22.77292 | 32001 ft | 492 kts | 212° |
| 2026-05-08 05:30 | 16.97126 | -22.80887 | 31995 ft | 492 kts | 212° |
| 2026-05-08 05:30 | 16.91203 | -22.84484 | 31997 ft | 492 kts | 212° |
| 2026-05-08 05:31 | 16.85283 | -22.88076 | 31993 ft | 492 kts | 212° |
| 2026-05-08 05:31 | 16.79404 | -22.91642 | 31996 ft | 492 kts | 212° |
| 2026-05-08 05:32 | 16.73482 | -22.95230 | 31990 ft | 491 kts | 212° |
| 2026-05-08 05:32 | 16.67530 | -22.98746 | 31993 ft | 491 kts | 211° |
| 2026-05-08 05:33 | 16.61553 | -23.02214 | 31994 ft | 491 kts | 211° |
| 2026-05-08 05:33 | 16.55574 | -23.05688 | 31993 ft | 491 kts | 211° |
| 2026-05-08 05:34 | 16.49620 | -23.09157 | 31991 ft | 490 kts | 211° |
| 2026-05-08 05:34 | 16.43667 | -23.12628 | 31993 ft | 490 kts | 211° |
| 2026-05-08 05:35 | 16.37717 | -23.16096 | 31995 ft | 490 kts | 211° |
| 2026-05-08 05:35 | 16.31770 | -23.19559 | 31993 ft | 489 kts | 211° |
| 2026-05-08 05:36 | 16.25826 | -23.23018 | 31990 ft | 489 kts | 211° |
| 2026-05-08 05:36 | 16.19885 | -23.26472 | 31992 ft | 489 kts | 211° |
| 2026-05-08 05:37 | 16.13983 | -23.29901 | 31991 ft | 488 kts | 211° |
| 2026-05-08 05:37 | 16.08054 | -23.33343 | 31996 ft | 488 kts | 211° |
| 2026-05-08 05:38 | 16.02118 | -23.36787 | 31991 ft | 487 kts | 211° |
| 2026-05-08 05:38 | 15.96197 | -23.40220 | 31993 ft | 487 kts | 211° |
| 2026-05-08 05:39 | 15.90280 | -23.43649 | 31989 ft | 487 kts | 211° |
| 2026-05-08 05:39 | 15.84400 | -23.47054 | 31990 ft | 486 kts | 211° |
| 2026-05-08 05:40 | 15.78495 | -23.50470 | 31989 ft | 486 kts | 211° |
| 2026-05-08 05:40 | 15.72594 | -23.53882 | 31984 ft | 485 kts | 211° |
| 2026-05-08 05:41 | 15.66702 | -23.57287 | 31983 ft | 484 kts | 211° |
| 2026-05-08 05:41 | 15.60819 | -23.60684 | 31981 ft | 484 kts | 211° |
| 2026-05-08 05:42 | 15.54935 | -23.64080 | 31980 ft | 483 kts | 211° |
| 2026-05-08 05:42 | 15.49056 | -23.67470 | 31975 ft | 482 kts | 211° |
| 2026-05-08 05:43 | 15.43222 | -23.70833 | 31978 ft | 482 kts | 212° |
| 2026-05-08 05:43 | 15.37359 | -23.74210 | 31978 ft | 481 kts | 212° |
| 2026-05-08 05:44 | 15.31513 | -23.77575 | 31977 ft | 480 kts | 212° |
| 2026-05-08 05:44 | 15.25669 | -23.80936 | 31976 ft | 480 kts | 212° |
| 2026-05-08 05:45 | 15.19839 | -23.84288 | 31982 ft | 479 kts | 212° |
| 2026-05-08 05:45 | 15.14014 | -23.87634 | 31981 ft | 478 kts | 212° |
| 2026-05-08 05:46 | 15.08195 | -23.90975 | 31986 ft | 478 kts | 212° |
| 2026-05-08 05:46 | 15.02424 | -23.94286 | 31983 ft | 477 kts | 212° |
| 2026-05-08 05:47 | 14.96615 | -23.97617 | 31990 ft | 476 kts | 212° |
| 2026-05-08 05:47 | 14.90821 | -24.00937 | 31990 ft | 476 kts | 212° |
| 2026-05-08 05:48 | 14.85033 | -24.04252 | 31987 ft | 475 kts | 212° |
| 2026-05-08 05:48 | 14.79245 | -24.07565 | 31986 ft | 474 kts | 212° |
| 2026-05-08 05:49 | 14.73478 | -24.10863 | 31985 ft | 474 kts | 212° |
| 2026-05-08 05:49 | 14.67741 | -24.14143 | 31983 ft | 473 kts | 212° |
| 2026-05-08 05:50 | 14.61982 | -24.17433 | 31981 ft | 473 kts | 212° |
| 2026-05-08 05:50 | 14.56231 | -24.20717 | 31980 ft | 472 kts | 212° |
| 2026-05-08 05:51 | 14.50480 | -24.23998 | 31977 ft | 472 kts | 212° |
| 2026-05-08 05:51 | 14.44738 | -24.27273 | 31977 ft | 472 kts | 212° |
| 2026-05-08 05:52 | 14.38996 | -24.30545 | 31978 ft | 471 kts | 212° |
| 2026-05-08 05:52 | 14.33249 | -24.33819 | 31976 ft | 471 kts | 213° |
| 2026-05-08 05:53 | 14.27548 | -24.37064 | 31975 ft | 470 kts | 213° |
| 2026-05-08 05:53 | 14.21811 | -24.40328 | 31975 ft | 470 kts | 213° |
| 2026-05-08 05:54 | 14.17050 | -24.43036 | 31974 ft | 470 kts | 213° |
| 2026-05-08 05:54 | 14.10353 | -24.46842 | 31975 ft | 470 kts | 213° |
| 2026-05-08 05:55 | 14.05597 | -24.49543 | 31976 ft | 469 kts | 213° |
| 2026-05-08 05:55 | 13.99879 | -24.52789 | 31976 ft | 469 kts | 213° |
| 2026-05-08 05:56 | 13.93240 | -24.56557 | 31974 ft | 468 kts | 213° |
| 2026-05-08 05:56 | 13.88458 | -24.59268 | 31974 ft | 468 kts | 213° |
| 2026-05-08 05:57 | 13.82788 | -24.62480 | 31972 ft | 468 kts | 213° |
| 2026-05-08 05:57 | 13.77074 | -24.65714 | 31970 ft | 467 kts | 213° |
| 2026-05-08 05:58 | 13.71377 | -24.68938 | 31972 ft | 467 kts | 213° |
| 2026-05-08 05:58 | 13.65692 | -24.72154 | 31970 ft | 466 kts | 213° |
| 2026-05-08 05:59 | 13.60016 | -24.75364 | 31984 ft | 466 kts | 213° |
| 2026-05-08 05:59 | 13.54336 | -24.78574 | 31982 ft | 465 kts | 213° |
| 2026-05-08 06:00 | 13.48656 | -24.81782 | 31959 ft | 465 kts | 213° |
| 2026-05-08 06:00 | 13.43029 | -24.84959 | 31977 ft | 465 kts | 213° |
| 2026-05-08 06:01 | 13.37353 | -24.88161 | 31973 ft | 465 kts | 213° |
| 2026-05-08 06:01 | 13.31677 | -24.91362 | 31959 ft | 464 kts | 213° |
| 2026-05-08 06:02 | 13.26014 | -24.94553 | 31970 ft | 464 kts | 213° |
| 2026-05-08 06:02 | 13.20352 | -24.97742 | 31973 ft | 464 kts | 213° |
| 2026-05-08 06:03 | 13.14692 | -25.00929 | 31971 ft | 464 kts | 213° |
| 2026-05-08 06:03 | 13.09070 | -25.04092 | 31969 ft | 463 kts | 213° |
| 2026-05-08 06:04 | 13.03413 | -25.07274 | 31966 ft | 463 kts | 213° |
| 2026-05-08 06:04 | 12.97759 | -25.10452 | 31970 ft | 463 kts | 213° |
| 2026-05-08 06:05 | 12.92105 | -25.13628 | 31967 ft | 463 kts | 213° |
| 2026-05-08 06:05 | 12.86446 | -25.16806 | 31968 ft | 463 kts | 213° |
| 2026-05-08 06:06 | 12.80792 | -25.19979 | 31970 ft | 463 kts | 213° |
| 2026-05-08 06:06 | 12.75137 | -25.23151 | 31967 ft | 463 kts | 213° |
| 2026-05-08 06:07 | 12.69486 | -25.26319 | 31965 ft | 463 kts | 213° |
| 2026-05-08 06:07 | 12.63835 | -25.29485 | 31966 ft | 463 kts | 213° |
| 2026-05-08 06:08 | 12.58177 | -25.32654 | 31966 ft | 463 kts | 213° |
| 2026-05-08 06:08 | 12.52520 | -25.35821 | 31967 ft | 463 kts | 213° |
| 2026-05-08 06:09 | 12.46899 | -25.38966 | 31963 ft | 464 kts | 213° |
| 2026-05-08 06:09 | 12.41237 | -25.42132 | 31966 ft | 464 kts | 213° |
| 2026-05-08 06:10 | 12.35571 | -25.45299 | 31967 ft | 464 kts | 213° |
| 2026-05-08 06:10 | 12.29902 | -25.48467 | 31967 ft | 465 kts | 213° |
| 2026-05-08 06:11 | 12.24222 | -25.51639 | 31966 ft | 465 kts | 213° |
| 2026-05-08 06:11 | 12.18543 | -25.54808 | 31964 ft | 466 kts | 213° |
| 2026-05-08 06:12 | 12.12847 | -25.57985 | 31966 ft | 466 kts | 213° |
| 2026-05-08 06:12 | 12.07143 | -25.61165 | 31964 ft | 467 kts | 213° |
| 2026-05-08 06:13 | 12.01431 | -25.64349 | 31966 ft | 468 kts | 213° |
| 2026-05-08 06:13 | 11.95719 | -25.67530 | 31965 ft | 468 kts | 213° |
| 2026-05-08 06:14 | 11.89992 | -25.70719 | 31967 ft | 469 kts | 213° |
| 2026-05-08 06:14 | 11.84262 | -25.73907 | 31964 ft | 469 kts | 212° |
| 2026-05-08 06:15 | 11.78553 | -25.77083 | 31966 ft | 469 kts | 212° |
| 2026-05-08 06:15 | 11.72814 | -25.80273 | 31960 ft | 470 kts | 212° |
| 2026-05-08 06:16 | 11.67067 | -25.83467 | 31962 ft | 470 kts | 212° |
| 2026-05-08 06:16 | 11.61315 | -25.86662 | 31965 ft | 471 kts | 212° |
| 2026-05-08 06:17 | 11.52668 | -25.91461 | 31964 ft | 472 kts | 212° |
| 2026-05-08 06:17 | 11.46898 | -25.94663 | 31968 ft | 472 kts | 212° |
| 2026-05-08 06:18 | 11.41156 | -25.97847 | 31962 ft | 473 kts | 212° |
| 2026-05-08 06:18 | 11.35367 | -26.01055 | 31963 ft | 474 kts | 212° |
| 2026-05-08 06:19 | 11.29563 | -26.04271 | 31962 ft | 474 kts | 212° |
| 2026-05-08 06:19 | 11.23764 | -26.07481 | 31963 ft | 475 kts | 212° |
| 2026-05-08 06:20 | 11.17948 | -26.10700 | 31978 ft | 475 kts | 212° |
| 2026-05-08 06:20 | 11.12133 | -26.13918 | 31957 ft | 476 kts | 211° |
| 2026-05-08 06:21 | 11.06337 | -26.17122 | 31950 ft | 476 kts | 211° |
| 2026-05-08 06:21 | 11.00517 | -26.20339 | 31974 ft | 476 kts | 211° |
| 2026-05-08 06:22 | 10.94689 | -26.23559 | 31953 ft | 476 kts | 211° |
| 2026-05-08 06:22 | 10.88864 | -26.26775 | 31950 ft | 476 kts | 211° |
| 2026-05-08 06:23 | 10.83029 | -26.29996 | 31966 ft | 476 kts | 211° |
| 2026-05-08 06:23 | 10.77196 | -26.33214 | 31962 ft | 477 kts | 211° |
| 2026-05-08 06:24 | 10.71366 | -26.36430 | 31964 ft | 477 kts | 211° |
| 2026-05-08 06:24 | 10.65521 | -26.39652 | 31962 ft | 478 kts | 211° |
| 2026-05-08 06:25 | 10.59702 | -26.42858 | 31958 ft | 478 kts | 211° |
| 2026-05-08 06:25 | 10.53833 | -26.46090 | 31959 ft | 479 kts | 211° |
| 2026-05-08 06:26 | 10.47959 | -26.49324 | 31958 ft | 479 kts | 211° |
| 2026-05-08 06:26 | 10.42123 | -26.52535 | 31959 ft | 480 kts | 211° |
| 2026-05-08 06:27 | 10.36250 | -26.55765 | 31960 ft | 480 kts | 211° |
| 2026-05-08 06:27 | 10.30375 | -26.58995 | 31955 ft | 480 kts | 211° |
| 2026-05-08 06:28 | 10.24495 | -26.62227 | 31956 ft | 480 kts | 211° |
| 2026-05-08 06:28 | 10.18607 | -26.65461 | 31957 ft | 480 kts | 211° |
| 2026-05-08 06:29 | 10.12718 | -26.68695 | 31955 ft | 481 kts | 211° |
| 2026-05-08 06:29 | 10.06839 | -26.71922 | 31948 ft | 481 kts | 211° |
| 2026-05-08 06:30 | 10.00952 | -26.75151 | 31952 ft | 481 kts | 211° |
| 2026-05-08 06:30 | 9.95060 | -26.78383 | 31953 ft | 481 kts | 211° |
| 2026-05-08 06:31 | 9.89205 | -26.81593 | 31957 ft | 481 kts | 211° |
| 2026-05-08 06:31 | 9.83319 | -26.84818 | 31953 ft | 481 kts | 211° |
| 2026-05-08 06:32 | 9.77413 | -26.88052 | 31953 ft | 482 kts | 211° |
| 2026-05-08 06:32 | 9.71505 | -26.91287 | 31951 ft | 482 kts | 211° |
| 2026-05-08 06:33 | 9.65644 | -26.94495 | 31953 ft | 482 kts | 210° |
| 2026-05-08 06:33 | 9.59730 | -26.97731 | 31951 ft | 482 kts | 210° |
| 2026-05-08 06:34 | 9.53821 | -27.00962 | 31950 ft | 483 kts | 210° |
| 2026-05-08 06:34 | 9.47906 | -27.04195 | 31949 ft | 483 kts | 210° |
| 2026-05-08 06:35 | 9.41991 | -27.07427 | 31949 ft | 483 kts | 210° |
| 2026-05-08 06:35 | 9.36070 | -27.10662 | 31950 ft | 483 kts | 210° |
| 2026-05-08 06:36 | 9.30140 | -27.13900 | 31950 ft | 484 kts | 210° |
| 2026-05-08 06:36 | 9.24210 | -27.17136 | 31951 ft | 484 kts | 210° |
| 2026-05-08 06:37 | 9.18316 | -27.20352 | 31948 ft | 484 kts | 210° |
| 2026-05-08 06:37 | 9.12375 | -27.23592 | 31949 ft | 484 kts | 210° |
| 2026-05-08 06:38 | 9.06432 | -27.26833 | 31948 ft | 485 kts | 210° |
| 2026-05-08 06:38 | 9.00493 | -27.30070 | 31949 ft | 485 kts | 210° |
| 2026-05-08 06:39 | 8.94589 | -27.33286 | 31946 ft | 485 kts | 210° |
| 2026-05-08 06:39 | 8.88645 | -27.36522 | 31948 ft | 485 kts | 210° |
| 2026-05-08 06:40 | 8.82693 | -27.39760 | 31943 ft | 485 kts | 210° |
| 2026-05-08 06:40 | 8.76745 | -27.42995 | 31948 ft | 486 kts | 210° |
| 2026-05-08 06:41 | 8.71799 | -27.45686 | 31947 ft | 486 kts | 210° |
| 2026-05-08 06:41 | 8.65844 | -27.48924 | 31948 ft | 486 kts | 210° |
| 2026-05-08 06:42 | 8.59877 | -27.52167 | 31949 ft | 486 kts | 210° |
| 2026-05-08 06:42 | 8.53897 | -27.55417 | 31947 ft | 487 kts | 210° |
| 2026-05-08 06:43 | 8.47972 | -27.58635 | 31949 ft | 487 kts | 210° |
| 2026-05-08 06:43 | 8.42005 | -27.61875 | 31945 ft | 487 kts | 210° |
| 2026-05-08 06:44 | 8.36036 | -27.65115 | 31947 ft | 487 kts | 210° |
| 2026-05-08 06:44 | 8.30063 | -27.68356 | 31950 ft | 487 kts | 210° |
| 2026-05-08 06:45 | 8.24082 | -27.71600 | 31943 ft | 487 kts | 210° |
| 2026-05-08 06:45 | 8.18108 | -27.74839 | 31947 ft | 487 kts | 210° |
| 2026-05-08 06:46 | 8.12157 | -27.78065 | 31940 ft | 487 kts | 210° |
| 2026-05-08 06:46 | 8.06181 | -27.81303 | 31942 ft | 488 kts | 209° |
| 2026-05-08 06:47 | 8.00197 | -27.84544 | 31939 ft | 488 kts | 209° |
| 2026-05-08 06:47 | 7.94213 | -27.87785 | 31942 ft | 488 kts | 209° |
| 2026-05-08 06:48 | 7.88219 | -27.91029 | 31941 ft | 488 kts | 209° |
| 2026-05-08 06:48 | 7.82236 | -27.94267 | 31939 ft | 488 kts | 209° |
| 2026-05-08 06:49 | 7.76250 | -27.97505 | 31939 ft | 488 kts | 209° |
| 2026-05-08 06:49 | 7.70296 | -28.00725 | 31940 ft | 488 kts | 209° |
| 2026-05-08 06:50 | 7.64304 | -28.03964 | 31935 ft | 488 kts | 209° |
| 2026-05-08 06:50 | 7.58312 | -28.07203 | 31937 ft | 488 kts | 209° |
| 2026-05-08 06:51 | 7.52321 | -28.10439 | 31935 ft | 488 kts | 209° |
| 2026-05-08 06:51 | 7.46335 | -28.13673 | 31936 ft | 488 kts | 208° |
| 2026-05-08 06:52 | 7.40350 | -28.16905 | 31936 ft | 488 kts | 208° |
| 2026-05-08 06:52 | 7.34359 | -28.20140 | 31936 ft | 488 kts | 208° |
| 2026-05-08 06:53 | 7.28368 | -28.23372 | 31935 ft | 488 kts | 208° |
| 2026-05-08 06:53 | 7.22380 | -28.26599 | 31934 ft | 488 kts | 208° |
| 2026-05-08 06:54 | 7.16392 | -28.29827 | 31934 ft | 488 kts | 208° |
| 2026-05-08 06:54 | 7.10425 | -28.33043 | 31932 ft | 488 kts | 208° |
| 2026-05-08 06:55 | 7.04429 | -28.36274 | 31932 ft | 489 kts | 208° |
| 2026-05-08 06:55 | 6.98436 | -28.39503 | 31934 ft | 489 kts | 208° |
| 2026-05-08 06:56 | 6.92435 | -28.42735 | 31933 ft | 489 kts | 208° |
| 2026-05-08 06:56 | 6.86442 | -28.45962 | 31931 ft | 488 kts | 208° |
| 2026-05-08 06:57 | 6.80455 | -28.49185 | 31933 ft | 488 kts | 208° |
| 2026-05-08 06:57 | 6.74463 | -28.52409 | 31935 ft | 488 kts | 208° |
| 2026-05-08 06:58 | 6.68462 | -28.55637 | 31932 ft | 488 kts | 208° |
| 2026-05-08 06:58 | 6.62503 | -28.58842 | 31930 ft | 488 kts | 208° |
| 2026-05-08 06:59 | 6.56510 | -28.62064 | 31934 ft | 488 kts | 208° |
| 2026-05-08 06:59 | 6.50513 | -28.65288 | 31928 ft | 488 kts | 208° |
| 2026-05-08 07:00 | 6.44517 | -28.68510 | 31928 ft | 488 kts | 208° |
| 2026-05-08 07:00 | 6.38528 | -28.71728 | 31930 ft | 488 kts | 208° |
| 2026-05-08 07:01 | 6.32536 | -28.74945 | 31925 ft | 488 kts | 208° |
| 2026-05-08 07:01 | 6.26550 | -28.78159 | 31924 ft | 488 kts | 208° |
| 2026-05-08 07:02 | 6.20538 | -28.81387 | 31937 ft | 492 kts | 208° |
| 2026-05-08 07:02 | 6.14503 | -28.84626 | 31929 ft | 496 kts | 208° |
| 2026-05-08 07:03 | 6.08390 | -28.87906 | 31929 ft | 499 kts | 208° |
| 2026-05-08 07:03 | 6.02238 | -28.91205 | 31922 ft | 500 kts | 208° |
| 2026-05-08 07:04 | 5.96103 | -28.94495 | 31926 ft | 501 kts | 208° |
| 2026-05-08 07:04 | 5.89958 | -28.97789 | 31920 ft | 499 kts | 208° |
| 2026-05-08 07:05 | 5.83858 | -29.01060 | 31921 ft | 500 kts | 208° |
| 2026-05-08 07:05 | 5.77719 | -29.04349 | 31923 ft | 501 kts | 208° |
| 2026-05-08 07:06 | 5.71580 | -29.07637 | 31915 ft | 500 kts | 208° |
| 2026-05-08 07:06 | 5.65456 | -29.10917 | 31916 ft | 500 kts | 208° |
| 2026-05-08 07:07 | 5.59280 | -29.14224 | 31923 ft | 500 kts | 207° |
| 2026-05-08 07:07 | 5.53171 | -29.17495 | 31915 ft | 500 kts | 208° |
| 2026-05-08 07:08 | 5.47023 | -29.20785 | 31920 ft | 501 kts | 208° |
| 2026-05-08 07:08 | 5.40867 | -29.24079 | 31920 ft | 501 kts | 208° |
| 2026-05-08 07:09 | 5.34714 | -29.27370 | 31921 ft | 501 kts | 207° |
| 2026-05-08 07:09 | 5.28593 | -29.30644 | 31921 ft | 502 kts | 207° |
| 2026-05-08 07:10 | 5.22441 | -29.33934 | 31912 ft | 500 kts | 207° |
| 2026-05-08 07:10 | 5.16306 | -29.37213 | 31913 ft | 498 kts | 207° |
| 2026-05-08 07:11 | 5.10222 | -29.40465 | 31909 ft | 493 kts | 207° |
| 2026-05-08 07:11 | 5.04186 | -29.43690 | 31915 ft | 491 kts | 207° |
| 2026-05-08 07:12 | 4.98179 | -29.46899 | 31927 ft | 493 kts | 207° |
| 2026-05-08 07:12 | 4.92081 | -29.50156 | 31924 ft | 498 kts | 207° |
| 2026-05-08 07:13 | 4.85938 | -29.53437 | 31917 ft | 501 kts | 207° |
| 2026-05-08 07:13 | 4.79787 | -29.56721 | 31911 ft | 501 kts | 207° |
| 2026-05-08 07:14 | 4.73656 | -29.59994 | 31911 ft | 498 kts | 207° |
| 2026-05-08 07:14 | 4.67547 | -29.63255 | 31912 ft | 496 kts | 207° |
| 2026-05-08 07:15 | 4.61455 | -29.66505 | 31914 ft | 495 kts | 207° |
| 2026-05-08 07:15 | 4.55387 | -29.69741 | 31918 ft | 494 kts | 207° |
| 2026-05-08 07:16 | 4.49307 | -29.72985 | 31982 ft | 495 kts | 207° |
| 2026-05-08 07:16 | 4.46302 | -29.74587 | 32295 ft | 494 kts | 207° |
| 2026-05-08 07:16 | 4.43280 | -29.76199 | 32663 ft | 491 kts | 207° |
| 2026-05-08 07:17 | 4.40273 | -29.77802 | 33020 ft | 488 kts | 207° |
| 2026-05-08 07:17 | 4.37277 | -29.79400 | 33362 ft | 486 kts | 207° |
| 2026-05-08 07:17 | 4.34295 | -29.80990 | 33643 ft | 485 kts | 207° |
| 2026-05-08 07:17 | 4.31310 | -29.82581 | 33837 ft | 485 kts | 207° |
| 2026-05-08 07:18 | 4.25333 | -29.85767 | 33908 ft | 487 kts | 207° |
| 2026-05-08 07:18 | 4.19361 | -29.88949 | 33913 ft | 486 kts | 207° |
| 2026-05-08 07:19 | 4.13620 | -29.92009 | 33916 ft | 484 kts | 207° |
| 2026-05-08 07:19 | 4.07687 | -29.95170 | 33912 ft | 483 kts | 207° |
| 2026-05-08 07:20 | 4.01745 | -29.98335 | 33920 ft | 483 kts | 207° |
| 2026-05-08 07:20 | 3.95835 | -30.01480 | 33918 ft | 484 kts | 207° |
| 2026-05-08 07:21 | 3.89882 | -30.04642 | 33916 ft | 485 kts | 207° |
| 2026-05-08 07:21 | 3.83915 | -30.07813 | 33920 ft | 486 kts | 207° |
| 2026-05-08 07:22 | 3.77928 | -30.10995 | 33915 ft | 487 kts | 207° |
| 2026-05-08 07:22 | 3.71974 | -30.14159 | 33920 ft | 488 kts | 207° |
| 2026-05-08 07:23 | 3.65972 | -30.17349 | 33918 ft | 488 kts | 207° |
| 2026-05-08 07:23 | 3.59968 | -30.20539 | 33916 ft | 489 kts | 207° |
| 2026-05-08 07:24 | 3.53959 | -30.23731 | 33918 ft | 489 kts | 207° |
| 2026-05-08 07:24 | 3.47943 | -30.26927 | 33914 ft | 489 kts | 207° |
| 2026-05-08 07:25 | 3.41929 | -30.30120 | 33912 ft | 489 kts | 207° |
| 2026-05-08 07:26 | 3.32894 | -30.34918 | 33921 ft | 490 kts | 207° |
| 2026-05-08 07:26 | 3.26871 | -30.38115 | 33917 ft | 490 kts | 207° |
| 2026-05-08 07:27 | 3.20877 | -30.41297 | 33917 ft | 491 kts | 207° |
| 2026-05-08 07:27 | 3.14843 | -30.44499 | 33916 ft | 491 kts | 207° |
| 2026-05-08 07:28 | 3.09783 | -30.47185 | 33919 ft | 491 kts | 207° |
| 2026-05-08 07:28 | 3.03771 | -30.50375 | 33917 ft | 492 kts | 207° |
| 2026-05-08 07:29 | 2.97723 | -30.53583 | 33923 ft | 492 kts | 207° |
| 2026-05-08 07:29 | 2.91654 | -30.56803 | 33916 ft | 493 kts | 207° |
| 2026-05-08 07:30 | 2.85632 | -30.59997 | 33920 ft | 493 kts | 207° |
| 2026-05-08 07:30 | 2.79573 | -30.63210 | 33919 ft | 493 kts | 207° |
| 2026-05-08 07:31 | 2.73517 | -30.66422 | 33917 ft | 493 kts | 207° |
| 2026-05-08 07:31 | 2.67460 | -30.69633 | 33921 ft | 493 kts | 207° |
| 2026-05-08 07:32 | 2.61398 | -30.72847 | 33919 ft | 493 kts | 207° |
| 2026-05-08 07:32 | 2.55332 | -30.76063 | 33921 ft | 493 kts | 207° |
| 2026-05-08 07:33 | 2.49269 | -30.79277 | 33921 ft | 493 kts | 207° |
| 2026-05-08 07:33 | 2.43206 | -30.82491 | 33914 ft | 494 kts | 207° |
| 2026-05-08 07:34 | 2.37167 | -30.85691 | 33913 ft | 494 kts | 207° |
| 2026-05-08 07:34 | 2.31100 | -30.88907 | 33923 ft | 493 kts | 207° |
| 2026-05-08 07:35 | 2.25036 | -30.92120 | 33919 ft | 493 kts | 207° |
| 2026-05-08 07:35 | 2.18966 | -30.95333 | 33924 ft | 493 kts | 207° |
| 2026-05-08 07:36 | 2.12900 | -30.98541 | 33920 ft | 493 kts | 207° |
| 2026-05-08 07:36 | 2.06838 | -31.01749 | 33924 ft | 493 kts | 207° |
| 2026-05-08 07:37 | 2.00764 | -31.04963 | 33923 ft | 493 kts | 207° |
| 2026-05-08 07:37 | 1.94723 | -31.08160 | 33922 ft | 493 kts | 207° |
| 2026-05-08 07:38 | 1.88660 | -31.11368 | 33924 ft | 494 kts | 207° |
| 2026-05-08 07:38 | 1.82581 | -31.14584 | 33925 ft | 494 kts | 207° |
| 2026-05-08 07:39 | 1.76504 | -31.17799 | 33924 ft | 494 kts | 207° |
| 2026-05-08 07:39 | 1.70427 | -31.21014 | 33923 ft | 494 kts | 207° |
| 2026-05-08 07:40 | 1.64349 | -31.24229 | 33925 ft | 494 kts | 207° |
| 2026-05-08 07:40 | 1.58273 | -31.27443 | 33929 ft | 494 kts | 207° |
| 2026-05-08 07:41 | 1.52187 | -31.30662 | 33926 ft | 494 kts | 207° |
| 2026-05-08 07:41 | 1.46151 | -31.33854 | 33929 ft | 494 kts | 207° |
| 2026-05-08 07:42 | 1.40073 | -31.37068 | 33927 ft | 494 kts | 207° |
| 2026-05-08 07:42 | 1.33991 | -31.40284 | 33926 ft | 494 kts | 208° |
| 2026-05-08 07:43 | 1.27912 | -31.43498 | 33926 ft | 494 kts | 208° |
| 2026-05-08 07:43 | 1.21832 | -31.46714 | 33922 ft | 494 kts | 208° |
| 2026-05-08 07:44 | 1.15753 | -31.49927 | 33922 ft | 494 kts | 208° |
| 2026-05-08 07:44 | 1.09671 | -31.53143 | 33924 ft | 495 kts | 208° |
| 2026-05-08 07:45 | 1.03609 | -31.56347 | 33924 ft | 496 kts | 208° |
| 2026-05-08 07:45 | 0.97510 | -31.59571 | 33927 ft | 496 kts | 208° |
| 2026-05-08 07:46 | 0.91402 | -31.62801 | 33928 ft | 497 kts | 208° |
| 2026-05-08 07:46 | 0.85283 | -31.66035 | 33926 ft | 497 kts | 208° |
| 2026-05-08 07:47 | 0.79159 | -31.69272 | 33920 ft | 498 kts | 208° |
| 2026-05-08 07:47 | 0.73037 | -31.72508 | 33924 ft | 498 kts | 208° |
| 2026-05-08 07:48 | 0.66950 | -31.75726 | 33926 ft | 498 kts | 208° |
| 2026-05-08 07:48 | 0.60815 | -31.78969 | 33924 ft | 498 kts | 208° |
| 2026-05-08 07:49 | 0.54680 | -31.82211 | 33924 ft | 498 kts | 208° |
| 2026-05-08 07:49 | 0.48552 | -31.85451 | 33923 ft | 498 kts | 208° |
| 2026-05-08 07:50 | 0.42416 | -31.88694 | 33924 ft | 499 kts | 208° |
| 2026-05-08 07:50 | 0.36284 | -31.91938 | 33925 ft | 499 kts | 208° |
| 2026-05-08 07:51 | 0.30152 | -31.95183 | 33928 ft | 499 kts | 208° |
| 2026-05-08 07:51 | 0.24021 | -31.98428 | 33923 ft | 499 kts | 208° |
| 2026-05-08 07:52 | 0.17873 | -32.01683 | 33923 ft | 499 kts | 208° |
| 2026-05-08 07:52 | 0.11774 | -32.04911 | 33927 ft | 498 kts | 208° |
| 2026-05-08 07:53 | 0.05635 | -32.08160 | 33922 ft | 497 kts | 208° |
| 2026-05-08 07:53 | -0.00488 | -32.11401 | 33925 ft | 497 kts | 208° |
| 2026-05-08 07:54 | -0.06589 | -32.14630 | 33928 ft | 496 kts | 208° |
| 2026-05-08 07:54 | -0.12679 | -32.17854 | 33923 ft | 495 kts | 208° |
| 2026-05-08 07:55 | -0.18728 | -32.21055 | 33922 ft | 494 kts | 208° |
| 2026-05-08 07:55 | -0.24806 | -32.24272 | 33928 ft | 494 kts | 208° |
| 2026-05-08 07:56 | -0.30880 | -32.27488 | 33925 ft | 494 kts | 208° |
| 2026-05-08 07:56 | -0.36959 | -32.30705 | 33924 ft | 494 kts | 208° |
| 2026-05-08 07:57 | -0.43034 | -32.33921 | 33924 ft | 494 kts | 208° |
| 2026-05-08 07:57 | -0.49125 | -32.37145 | 33923 ft | 495 kts | 208° |
| 2026-05-08 07:58 | -0.55182 | -32.40352 | 33925 ft | 496 kts | 208° |
| 2026-05-08 07:58 | -0.61287 | -32.43583 | 33924 ft | 497 kts | 208° |
| 2026-05-08 07:59 | -0.67403 | -32.46821 | 33923 ft | 498 kts | 208° |
| 2026-05-08 07:59 | -0.73535 | -32.50067 | 33924 ft | 498 kts | 208° |
| 2026-05-08 08:00 | -0.79670 | -32.53315 | 33926 ft | 499 kts | 208° |
| 2026-05-08 08:00 | -0.85780 | -32.56550 | 33926 ft | 499 kts | 208° |
| 2026-05-08 08:01 | -0.91914 | -32.59798 | 33923 ft | 499 kts | 208° |
| 2026-05-08 08:01 | -0.98048 | -32.63045 | 33918 ft | 498 kts | 208° |
| 2026-05-08 08:02 | -1.04173 | -32.66288 | 33922 ft | 497 kts | 208° |
| 2026-05-08 08:02 | -1.10282 | -32.69524 | 33926 ft | 496 kts | 208° |
| 2026-05-08 08:03 | -1.16350 | -32.72737 | 33918 ft | 496 kts | 208° |
| 2026-05-08 08:03 | -1.22453 | -32.75969 | 33919 ft | 496 kts | 208° |
| 2026-05-08 08:04 | -1.28555 | -32.79202 | 33921 ft | 496 kts | 208° |
| 2026-05-08 08:04 | -1.34663 | -32.82437 | 33919 ft | 497 kts | 208° |
| 2026-05-08 08:05 | -1.40786 | -32.85679 | 33919 ft | 498 kts | 208° |
| 2026-05-08 08:05 | -1.46871 | -32.88901 | 33911 ft | 499 kts | 208° |
| 2026-05-08 08:06 | -1.53011 | -32.92154 | 33913 ft | 500 kts | 208° |
| 2026-05-08 08:06 | -1.59170 | -32.95417 | 33910 ft | 501 kts | 208° |
| 2026-05-08 08:07 | -1.65330 | -32.98681 | 33914 ft | 502 kts | 208° |
| 2026-05-08 08:07 | -1.71524 | -33.01964 | 33910 ft | 503 kts | 208° |
| 2026-05-08 08:08 | -1.77713 | -33.05243 | 33915 ft | 504 kts | 208° |
| 2026-05-08 08:08 | -1.83878 | -33.08511 | 33915 ft | 504 kts | 208° |
| 2026-05-08 08:09 | -1.90077 | -33.11796 | 33912 ft | 504 kts | 208° |
| 2026-05-08 08:09 | -1.96280 | -33.15085 | 33914 ft | 503 kts | 208° |
| 2026-05-08 08:10 | -2.02448 | -33.18354 | 33910 ft | 502 kts | 208° |
| 2026-05-08 08:10 | -2.08610 | -33.21621 | 33909 ft | 500 kts | 208° |
| 2026-05-08 08:11 | -2.14760 | -33.24882 | 33909 ft | 500 kts | 208° |
| 2026-05-08 08:11 | -2.20897 | -33.28137 | 33914 ft | 499 kts | 208° |
| 2026-05-08 08:12 | -2.26995 | -33.31371 | 33909 ft | 499 kts | 208° |
| 2026-05-08 08:12 | -2.33148 | -33.34634 | 33908 ft | 500 kts | 208° |
| 2026-05-08 08:13 | -2.39303 | -33.37899 | 33907 ft | 501 kts | 208° |
| 2026-05-08 08:13 | -2.45486 | -33.41179 | 33914 ft | 502 kts | 208° |
| 2026-05-08 08:14 | -2.51639 | -33.44444 | 33912 ft | 504 kts | 208° |
| 2026-05-08 08:14 | -2.57838 | -33.47734 | 33915 ft | 505 kts | 208° |
| 2026-05-08 08:15 | -2.63003 | -33.50475 | 33906 ft | 505 kts | 208° |
| 2026-05-08 08:15 | -2.69217 | -33.53765 | 33909 ft | 506 kts | 208° |
| 2026-05-08 08:16 | -2.75456 | -33.57059 | 33909 ft | 506 kts | 208° |
| 2026-05-08 08:16 | -2.81693 | -33.60354 | 33908 ft | 506 kts | 208° |
| 2026-05-08 08:17 | -2.87926 | -33.63650 | 33908 ft | 506 kts | 208° |
| 2026-05-08 08:17 | -2.94149 | -33.66941 | 33907 ft | 506 kts | 209° |
| 2026-05-08 08:18 | -3.00342 | -33.70217 | 33912 ft | 506 kts | 209° |
| 2026-05-08 08:18 | -3.06562 | -33.73507 | 33911 ft | 505 kts | 209° |
| 2026-05-08 08:19 | -3.12741 | -33.76776 | 33913 ft | 505 kts | 209° |
| 2026-05-08 08:19 | -3.18985 | -33.80080 | 33911 ft | 504 kts | 209° |
| 2026-05-08 08:20 | -3.25147 | -33.83341 | 33914 ft | 504 kts | 209° |
| 2026-05-08 08:20 | -3.31340 | -33.86619 | 33913 ft | 503 kts | 209° |
| 2026-05-08 08:21 | -3.37527 | -33.89895 | 33912 ft | 502 kts | 209° |
| 2026-05-08 08:21 | -3.43709 | -33.93168 | 33918 ft | 501 kts | 209° |
| 2026-05-08 08:22 | -3.49875 | -33.96433 | 33917 ft | 501 kts | 209° |
| 2026-05-08 08:22 | -3.56039 | -33.99699 | 33913 ft | 501 kts | 209° |
| 2026-05-08 08:23 | -3.62195 | -34.02960 | 33914 ft | 500 kts | 209° |
| 2026-05-08 08:23 | -3.68310 | -34.06202 | 33918 ft | 500 kts | 209° |
| 2026-05-08 08:24 | -3.74457 | -34.09469 | 33917 ft | 500 kts | 209° |
| 2026-05-08 08:24 | -3.80604 | -34.12737 | 33921 ft | 499 kts | 209° |
| 2026-05-08 08:25 | -3.86741 | -34.16000 | 33922 ft | 499 kts | 209° |
| 2026-05-08 08:25 | -3.92876 | -34.19263 | 33919 ft | 499 kts | 209° |
| 2026-05-08 08:26 | -3.99012 | -34.22526 | 33917 ft | 499 kts | 209° |
| 2026-05-08 08:26 | -4.05140 | -34.25786 | 33924 ft | 499 kts | 209° |
| 2026-05-08 08:27 | -4.11234 | -34.29027 | 33922 ft | 498 kts | 209° |
| 2026-05-08 08:27 | -4.17363 | -34.32289 | 33919 ft | 498 kts | 209° |
| 2026-05-08 08:28 | -4.23488 | -34.35548 | 33923 ft | 498 kts | 209° |
| 2026-05-08 08:28 | -4.29613 | -34.38808 | 33926 ft | 498 kts | 209° |
| 2026-05-08 08:29 | -4.35727 | -34.42063 | 33924 ft | 498 kts | 209° |
| 2026-05-08 08:29 | -4.41812 | -34.45304 | 33921 ft | 498 kts | 209° |
| 2026-05-08 08:30 | -4.47934 | -34.48564 | 33921 ft | 498 kts | 209° |
| 2026-05-08 08:30 | -4.57110 | -34.53452 | 33925 ft | 498 kts | 209° |
| 2026-05-08 08:31 | -4.63242 | -34.56719 | 33925 ft | 498 kts | 209° |
| 2026-05-08 08:31 | -4.69376 | -34.59989 | 33923 ft | 498 kts | 209° |
| 2026-05-08 08:32 | -4.75463 | -34.63233 | 33928 ft | 498 kts | 209° |
| 2026-05-08 08:32 | -4.81597 | -34.66504 | 33924 ft | 498 kts | 209° |
| 2026-05-08 08:33 | -4.87730 | -34.69775 | 33925 ft | 498 kts | 209° |